www.cux-wetter.de
Wetterdaten: Sonntag, 17.02.2008
Datum Zeit Temp. A. Feuchte A. Luftdruck Regen Wind Richtung Richtung Sonnenschein Solar Taupunkt Windchill Windben
17.02.2008 00:02 -2,6 C 77 % 1042,5 hPa 0,0 l/m 4,0 km/h (1 Bft) SW 225 0 min 0 W/m -6,1 C -2,6 C 4,0 km/h (1 Bft)
17.02.2008 00:06 -2,6 C 77 % 1042,5 hPa 0,0 l/m 4,0 km/h (1 Bft) SW 225 0 min 0 W/m -6,1 C -2,6 C 4,0 km/h (1 Bft)
17.02.2008 00:09 -2,6 C 77 % 1042,5 hPa 0,0 l/m 4,5 km/h (1 Bft) SW 225 0 min 0 W/m -6,1 C -2,6 C 4,5 km/h (1 Bft)
17.02.2008 00:12 -2,6 C 78 % 1042,5 hPa 0,0 l/m 3,4 km/h (1 Bft) SW 225 0 min 0 W/m -5,9 C -2,6 C 3,4 km/h (1 Bft)
17.02.2008 00:14 -2,6 C 78 % 1042,5 hPa 0,0 l/m 5,6 km/h (2 Bft) W-SW 240 0 min 0 W/m -5,9 C -2,6 C 5,6 km/h (2 Bft)
17.02.2008 00:17 -2,6 C 78 % 1042,5 hPa 0,0 l/m 6,1 km/h (2 Bft) W-SW 250 0 min 0 W/m -5,9 C -2,6 C 6,1 km/h (2 Bft)
17.02.2008 00:20 -2,6 C 78 % 1042,5 hPa 0,0 l/m 5,6 km/h (2 Bft) W-SW 245 0 min 0 W/m -5,9 C -2,6 C 5,6 km/h (2 Bft)
17.02.2008 00:23 -2,6 C 79 % 1042,5 hPa 0,0 l/m 5,8 km/h (2 Bft) W-SW 250 0 min 0 W/m -5,7 C -2,6 C 5,8 km/h (2 Bft)
17.02.2008 00:26 -2,6 C 79 % 1042,5 hPa 0,0 l/m 4,9 km/h (1 Bft) W-SW 245 0 min 0 W/m -5,7 C -2,6 C 4,9 km/h (1 Bft)
17.02.2008 00:29 -2,6 C 79 % 1042,5 hPa 0,0 l/m 4,8 km/h (1 Bft) W-SW 240 0 min 0 W/m -5,7 C -2,6 C 4,8 km/h (1 Bft)
17.02.2008 00:32 -2,6 C 79 % 1042,5 hPa 0,0 l/m 3,8 km/h (1 Bft) W-SW 240 0 min 0 W/m -5,7 C -2,6 C 3,8 km/h (1 Bft)
17.02.2008 00:35 -2,6 C 78 % 1042,5 hPa 0,0 l/m 3,8 km/h (1 Bft) W-SW 240 0 min 0 W/m -5,9 C -2,6 C 3,8 km/h (1 Bft)
17.02.2008 00:38 -2,6 C 78 % 1042,5 hPa 0,0 l/m 3,3 km/h (1 Bft) SW 235 0 min 0 W/m -5,9 C -2,6 C 3,3 km/h (1 Bft)
17.02.2008 00:41 -2,6 C 79 % 1042,5 hPa 0,0 l/m 5,4 km/h (2 Bft) SW 235 0 min 0 W/m -5,7 C -2,6 C 5,4 km/h (2 Bft)
17.02.2008 00:45 -2,6 C 79 % 1042,5 hPa 0,0 l/m 1,7 km/h (1 Bft) SW 235 0 min 0 W/m -5,7 C -2,6 C 1,7 km/h (1 Bft)
17.02.2008 00:48 -2,6 C 79 % 1042,5 hPa 0,0 l/m 4,7 km/h (1 Bft) W-SW 240 0 min 0 W/m -5,7 C -2,6 C 4,7 km/h (1 Bft)
17.02.2008 00:51 -2,6 C 79 % 1042,5 hPa 0,0 l/m 3,6 km/h (1 Bft) W-SW 240 0 min 0 W/m -5,7 C -2,6 C 3,6 km/h (1 Bft)
17.02.2008 00:54 -2,6 C 79 % 1042,5 hPa 0,0 l/m 4,8 km/h (1 Bft) W-SW 240 0 min 0 W/m -5,7 C -2,6 C 4,8 km/h (1 Bft)
17.02.2008 00:57 -2,6 C 79 % 1042,5 hPa 0,0 l/m 5,5 km/h (2 Bft) SW 235 0 min 0 W/m -5,7 C -2,6 C 5,5 km/h (2 Bft)
17.02.2008 01:00 -2,6 C 79 % 1042,5 hPa 0,0 l/m 4,6 km/h (1 Bft) W-SW 245 0 min 0 W/m -5,7 C -2,6 C 4,6 km/h (1 Bft)
17.02.2008 01:02 -2,6 C 79 % 1041,5 hPa 0,0 l/m 6,1 km/h (2 Bft) W-SW 250 0 min 0 W/m -5,7 C -2,6 C 6,1 km/h (2 Bft)
17.02.2008 01:05 -2,6 C 80 % 1041,5 hPa 0,0 l/m 5,0 km/h (1 Bft) W-SW 240 0 min 0 W/m -5,6 C -2,6 C 5,0 km/h (1 Bft)
17.02.2008 01:08 -2,6 C 80 % 1041,5 hPa 0,0 l/m 5,4 km/h (2 Bft) W-SW 245 0 min 0 W/m -5,6 C -2,6 C 5,4 km/h (2 Bft)
17.02.2008 01:11 -2,6 C 80 % 1041,5 hPa 0,0 l/m 4,9 km/h (1 Bft) SW 235 0 min 0 W/m -5,6 C -2,6 C 4,9 km/h (1 Bft)
17.02.2008 01:14 -2,6 C 80 % 1041,5 hPa 0,0 l/m 5,7 km/h (2 Bft) W-SW 240 0 min 0 W/m -5,6 C -2,6 C 5,7 km/h (2 Bft)
17.02.2008 01:17 -2,6 C 80 % 1041,5 hPa 0,0 l/m 5,3 km/h (1 Bft) W-SW 245 0 min 0 W/m -5,6 C -2,6 C 5,3 km/h (1 Bft)
17.02.2008 01:20 -2,6 C 80 % 1041,5 hPa 0,0 l/m 5,2 km/h (1 Bft) W-SW 245 0 min 0 W/m -5,6 C -2,6 C 5,2 km/h (1 Bft)
17.02.2008 01:24 -2,6 C 81 % 1041,5 hPa 0,0 l/m 5,7 km/h (2 Bft) W-SW 250 0 min 0 W/m -5,4 C -2,6 C 5,7 km/h (2 Bft)
17.02.2008 01:27 -2,6 C 81 % 1041,5 hPa 0,0 l/m 5,8 km/h (2 Bft) W-SW 240 0 min 0 W/m -5,4 C -2,6 C 5,8 km/h (2 Bft)
17.02.2008 01:30 -2,6 C 81 % 1041,5 hPa 0,0 l/m 6,1 km/h (2 Bft) SW 230 0 min 0 W/m -5,4 C -2,6 C 6,1 km/h (2 Bft)
17.02.2008 01:33 -2,6 C 81 % 1041,5 hPa 0,0 l/m 5,2 km/h (1 Bft) SW 225 0 min 0 W/m -5,4 C -2,6 C 5,2 km/h (1 Bft)
17.02.2008 01:36 -2,6 C 80 % 1041,5 hPa 0,0 l/m 5,3 km/h (1 Bft) SW 225 0 min 0 W/m -5,6 C -2,6 C 5,3 km/h (1 Bft)
17.02.2008 01:39 -2,6 C 80 % 1041,5 hPa 0,0 l/m 4,6 km/h (1 Bft) SW 220 0 min 0 W/m -5,6 C -2,6 C 4,6 km/h (1 Bft)
17.02.2008 01:42 -2,6 C 81 % 1041,5 hPa 0,0 l/m 4,6 km/h (1 Bft) SW 220 0 min 0 W/m -5,4 C -2,6 C 4,6 km/h (1 Bft)
17.02.2008 01:45 -2,6 C 81 % 1041,5 hPa 0,0 l/m 4,8 km/h (1 Bft) SW 225 0 min 0 W/m -5,4 C -2,6 C 4,8 km/h (1 Bft)
17.02.2008 01:48 -2,6 C 81 % 1041,5 hPa 0,0 l/m 6,3 km/h (2 Bft) SW 225 0 min 0 W/m -5,4 C -2,6 C 6,3 km/h (2 Bft)
17.02.2008 01:51 -2,6 C 81 % 1041,5 hPa 0,0 l/m 6,1 km/h (2 Bft) SW 230 0 min 0 W/m -5,4 C -2,6 C 6,1 km/h (2 Bft)
17.02.2008 01:54 -2,6 C 81 % 1041,5 hPa 0,0 l/m 5,1 km/h (1 Bft) SW 225 0 min 0 W/m -5,4 C -2,6 C 5,1 km/h (1 Bft)
17.02.2008 01:57 -2,6 C 82 % 1041,5 hPa 0,0 l/m 5,2 km/h (1 Bft) SW 225 0 min 0 W/m -5,2 C -2,6 C 5,2 km/h (1 Bft)
17.02.2008 02:00 -2,6 C 82 % 1041,5 hPa 0,0 l/m 5,4 km/h (2 Bft) SW 230 0 min 0 W/m -5,2 C -2,6 C 5,4 km/h (2 Bft)
17.02.2008 02:03 -2,6 C 83 % 1041,5 hPa 0,0 l/m 6,1 km/h (2 Bft) W-SW 240 0 min 0 W/m -5,1 C -2,6 C 6,1 km/h (2 Bft)
17.02.2008 02:06 -2,6 C 82 % 1041,5 hPa 0,0 l/m 6,6 km/h (2 Bft) W-SW 240 0 min 0 W/m -5,2 C -2,8 C 6,6 km/h (2 Bft)
17.02.2008 02:09 -2,5 C 83 % 1041,5 hPa 0,0 l/m 5,3 km/h (1 Bft) W-SW 240 0 min 0 W/m -5,0 C -2,5 C 5,3 km/h (1 Bft)
17.02.2008 02:12 -2,5 C 82 % 1041,5 hPa 0,0 l/m 5,3 km/h (1 Bft) W-SW 240 0 min 0 W/m -5,1 C -2,5 C 5,3 km/h (1 Bft)
17.02.2008 02:15 -2,5 C 82 % 1041,5 hPa 0,0 l/m 7,0 km/h (2 Bft) W-SW 240 0 min 0 W/m -5,1 C -3,2 C 7,0 km/h (2 Bft)
17.02.2008 02:18 -2,5 C 83 % 1041,5 hPa 0,0 l/m 7,3 km/h (2 Bft) W-SW 245 0 min 0 W/m -5,0 C -3,5 C 7,3 km/h (2 Bft)
17.02.2008 02:21 -2,4 C 83 % 1041,5 hPa 0,0 l/m 8,9 km/h (2 Bft) W-SW 250 0 min 0 W/m -4,9 C -5,1 C 8,9 km/h (2 Bft)
17.02.2008 02:24 -2,4 C 84 % 1041,5 hPa 0,0 l/m 9,2 km/h (2 Bft) W-SW 255 0 min 0 W/m -4,7 C -5,4 C 9,2 km/h (2 Bft)
17.02.2008 02:27 -2,2 C 84 % 1040,5 hPa 0,0 l/m 9,7 km/h (2 Bft) W-SW 250 0 min 0 W/m -4,5 C -5,6 C 9,7 km/h (2 Bft)
17.02.2008 02:30 -2,2 C 84 % 1040,5 hPa 0,0 l/m 9,4 km/h (2 Bft) W-SW 250 0 min 0 W/m -4,5 C -5,3 C 9,4 km/h (2 Bft)
17.02.2008 02:33 -2,1 C 83 % 1040,5 hPa 0,0 l/m 8,8 km/h (2 Bft) W-SW 250 0 min 0 W/m -4,6 C -4,7 C 8,8 km/h (2 Bft)
17.02.2008 02:36 -2,0 C 83 % 1040,5 hPa 0,0 l/m 7,9 km/h (2 Bft) W-SW 250 0 min 0 W/m -4,5 C -3,6 C 7,9 km/h (2 Bft)
17.02.2008 02:38 -2,0 C 82 % 1040,5 hPa 0,0 l/m 6,6 km/h (2 Bft) W-SW 245 0 min 0 W/m -4,7 C -2,2 C 6,6 km/h (2 Bft)
17.02.2008 02:41 -2,0 C 82 % 1040,5 hPa 0,0 l/m 8,4 km/h (2 Bft) W-SW 250 0 min 0 W/m -4,7 C -4,2 C 8,4 km/h (2 Bft)
17.02.2008 02:44 -2,0 C 82 % 1040,5 hPa 0,0 l/m 7,4 km/h (2 Bft) W 260 0 min 0 W/m -4,7 C -3,1 C 7,4 km/h (2 Bft)
17.02.2008 02:47 -2,0 C 82 % 1040,5 hPa 0,0 l/m 7,8 km/h (2 Bft) W 260 0 min 0 W/m -4,7 C -3,5 C 7,8 km/h (2 Bft)
17.02.2008 02:50 -2,0 C 82 % 1040,5 hPa 0,0 l/m 8,7 km/h (2 Bft) W-SW 255 0 min 0 W/m -4,7 C -4,5 C 8,7 km/h (2 Bft)
17.02.2008 02:53 -2,0 C 82 % 1040,5 hPa 0,0 l/m 8,2 km/h (2 Bft) W-SW 255 0 min 0 W/m -4,7 C -4,0 C 8,2 km/h (2 Bft)
17.02.2008 02:56 -1,9 C 82 % 1040,5 hPa 0,0 l/m 8,7 km/h (2 Bft) W-SW 250 0 min 0 W/m -4,6 C -4,3 C 8,7 km/h (2 Bft)
17.02.2008 02:59 -1,9 C 82 % 1040,5 hPa 0,0 l/m 9,3 km/h (2 Bft) W-SW 255 0 min 0 W/m -4,6 C -4,9 C 9,3 km/h (2 Bft)
17.02.2008 03:03 -1,8 C 82 % 1040,5 hPa 0,0 l/m 8,8 km/h (2 Bft) W-SW 255 0 min 0 W/m -4,5 C -4,3 C 8,8 km/h (2 Bft)
17.02.2008 03:06 -1,8 C 82 % 1040,5 hPa 0,0 l/m 12,0 km/h (2 Bft) W-SW 250 0 min 0 W/m -4,5 C -7,1 C 12,0 km/h (2 Bft)
17.02.2008 03:09 -1,8 C 82 % 1040,5 hPa 0,0 l/m 10,3 km/h (2 Bft) W 260 0 min 0 W/m -4,5 C -5,7 C 10,3 km/h (2 Bft)
17.02.2008 03:12 -1,7 C 82 % 1040,5 hPa 0,0 l/m 9,3 km/h (2 Bft) W-SW 250 0 min 0 W/m -4,4 C -4,7 C 9,3 km/h (2 Bft)
17.02.2008 03:14 -1,7 C 82 % 1040,5 hPa 0,0 l/m 10,5 km/h (2 Bft) W 260 0 min 0 W/m -4,4 C -5,8 C 10,5 km/h (2 Bft)
17.02.2008 03:17 -1,7 C 82 % 1040,5 hPa 0,0 l/m 12,0 km/h (2 Bft) W 260 0 min 0 W/m -4,4 C -7,0 C 12,0 km/h (2 Bft)
17.02.2008 03:20 -1,7 C 83 % 1040,5 hPa 0,0 l/m 12,0 km/h (2 Bft) W 260 0 min 0 W/m -4,2 C -7,0 C 12,0 km/h (2 Bft)
17.02.2008 03:23 -1,6 C 83 % 1040,5 hPa 0,0 l/m 13,0 km/h (3 Bft) W 260 0 min 0 W/m -4,1 C -7,6 C 13,0 km/h (3 Bft)
17.02.2008 03:26 -1,6 C 83 % 1039,5 hPa 0,0 l/m 13,8 km/h (3 Bft) W 260 0 min 0 W/m -4,1 C -8,1 C 13,8 km/h (3 Bft)
17.02.2008 03:29 -1,6 C 82 % 1039,5 hPa 0,0 l/m 12,5 km/h (2 Bft) W-SW 255 0 min 0 W/m -4,3 C -7,2 C 12,5 km/h (2 Bft)
17.02.2008 03:32 -1,6 C 82 % 1039,5 hPa 0,0 l/m 12,5 km/h (2 Bft) W-SW 255 0 min 0 W/m -4,3 C -7,2 C 12,5 km/h (2 Bft)
17.02.2008 03:35 -1,5 C 82 % 1039,5 hPa 0,0 l/m 10,4 km/h (2 Bft) W 260 0 min 0 W/m -4,2 C -5,5 C 10,4 km/h (2 Bft)
17.02.2008 03:39 -1,5 C 81 % 1039,5 hPa 0,0 l/m 11,9 km/h (2 Bft) W 260 0 min 0 W/m -4,3 C -6,7 C 11,9 km/h (2 Bft)
17.02.2008 03:42 -1,5 C 81 % 1039,5 hPa 0,0 l/m 11,0 km/h (2 Bft) W-SW 255 0 min 0 W/m -4,3 C -5,9 C 11,0 km/h (2 Bft)
17.02.2008 03:45 -1,5 C 81 % 1039,5 hPa 0,0 l/m 11,0 km/h (2 Bft) W-SW 255 0 min 0 W/m -4,3 C -5,9 C 11,0 km/h (2 Bft)
17.02.2008 03:48 -1,5 C 81 % 1039,5 hPa 0,0 l/m 11,3 km/h (2 Bft) W-SW 255 0 min 0 W/m -4,3 C -6,2 C 11,3 km/h (2 Bft)
17.02.2008 03:51 -1,6 C 81 % 1039,5 hPa 0,0 l/m 10,4 km/h (2 Bft) W-SW 255 0 min 0 W/m -4,4 C -5,6 C 10,4 km/h (2 Bft)
17.02.2008 03:54 -1,6 C 81 % 1039,5 hPa 0,0 l/m 12,0 km/h (2 Bft) W-SW 250 0 min 0 W/m -4,4 C -6,8 C 12,0 km/h (2 Bft)
17.02.2008 03:57 -1,6 C 81 % 1039,5 hPa 0,0 l/m 11,2 km/h (2 Bft) W 260 0 min 0 W/m -4,4 C -6,2 C 11,2 km/h (2 Bft)
17.02.2008 04:00 -1,6 C 81 % 1039,5 hPa 0,0 l/m 11,5 km/h (2 Bft) W 260 0 min 0 W/m -4,4 C -6,5 C 11,5 km/h (2 Bft)
17.02.2008 04:02 -1,6 C 81 % 1039,5 hPa 0,0 l/m 10,1 km/h (2 Bft) W-SW 255 0 min 0 W/m -4,4 C -5,3 C 10,1 km/h (2 Bft)
17.02.2008 04:05 -1,6 C 81 % 1039,5 hPa 0,0 l/m 10,0 km/h (2 Bft) W 260 0 min 0 W/m -4,4 C -5,2 C 10,0 km/h (2 Bft)
17.02.2008 04:09 -1,6 C 81 % 1039,5 hPa 0,0 l/m 10,0 km/h (2 Bft) W 265 0 min 0 W/m -4,4 C -5,2 C 10,0 km/h (2 Bft)
17.02.2008 04:12 -1,6 C 82 % 1039,5 hPa 0,0 l/m 9,1 km/h (2 Bft) W 260 0 min 0 W/m -4,3 C -4,4 C 9,1 km/h (2 Bft)
17.02.2008 04:15 -1,6 C 82 % 1039,5 hPa 0,0 l/m 10,6 km/h (2 Bft) W-SW 250 0 min 0 W/m -4,3 C -5,7 C 10,6 km/h (2 Bft)
17.02.2008 04:18 -1,5 C 82 % 1039,5 hPa 0,0 l/m 9,6 km/h (2 Bft) W 260 0 min 0 W/m -4,2 C -4,8 C 9,6 km/h (2 Bft)
17.02.2008 04:21 -1,5 C 82 % 1039,5 hPa 0,0 l/m 7,9 km/h (2 Bft) W 260 0 min 0 W/m -4,2 C -3,1 C 7,9 km/h (2 Bft)
17.02.2008 04:24 -1,5 C 83 % 1039,5 hPa 0,0 l/m 9,1 km/h (2 Bft) W 260 0 min 0 W/m -4,0 C -4,3 C 9,1 km/h (2 Bft)
17.02.2008 04:27 -1,5 C 83 % 1039,5 hPa 0,0 l/m 11,8 km/h (2 Bft) W-SW 255 0 min 0 W/m -4,0 C -6,6 C 11,8 km/h (2 Bft)
17.02.2008 04:30 -1,4 C 83 % 1039,5 hPa 0,0 l/m 10,8 km/h (2 Bft) W 265 0 min 0 W/m -3,9 C -5,7 C 10,8 km/h (2 Bft)
17.02.2008 04:33 -1,4 C 83 % 1039,5 hPa 0,0 l/m 11,2 km/h (2 Bft) W 270 0 min 0 W/m -3,9 C -6,0 C 11,2 km/h (2 Bft)
17.02.2008 04:36 -1,4 C 83 % 1039,5 hPa 0,0 l/m 13,6 km/h (3 Bft) W 270 0 min 0 W/m -3,9 C -7,8 C 13,6 km/h (3 Bft)
17.02.2008 04:38 -1,3 C 83 % 1039,5 hPa 0,0 l/m 11,6 km/h (2 Bft) W 270 0 min 0 W/m -3,8 C -6,2 C 11,6 km/h (2 Bft)
17.02.2008 04:41 -1,3 C 83 % 1039,5 hPa 0,0 l/m 11,6 km/h (2 Bft) W 265 0 min 0 W/m -3,8 C -6,2 C 11,6 km/h (2 Bft)
17.02.2008 04:44 -1,3 C 83 % 1039,5 hPa 0,0 l/m 11,2 km/h (2 Bft) W 265 0 min 0 W/m -3,8 C -5,9 C 11,2 km/h (2 Bft)
17.02.2008 04:47 -1,3 C 82 % 1039,5 hPa 0,0 l/m 12,0 km/h (2 Bft) W 275 0 min 0 W/m -4,0 C -6,5 C 12,0 km/h (2 Bft)
17.02.2008 04:50 -1,3 C 82 % 1039,5 hPa 0,0 l/m 10,7 km/h (2 Bft) W 265 0 min 0 W/m -4,0 C -5,5 C 10,7 km/h (2 Bft)
17.02.2008 04:53 -1,3 C 83 % 1039,5 hPa 0,0 l/m 9,1 km/h (2 Bft) W 260 0 min 0 W/m -3,8 C -4,1 C 9,1 km/h (2 Bft)
17.02.2008 04:56 -1,2 C 83 % 1039,5 hPa 0,0 l/m 9,1 km/h (2 Bft) W 260 0 min 0 W/m -3,7 C -4,0 C 9,1 km/h (2 Bft)
17.02.2008 04:59 -1,2 C 82 % 1039,5 hPa 0,0 l/m 13,0 km/h (3 Bft) W 265 0 min 0 W/m -3,9 C -7,1 C 13,0 km/h (3 Bft)
17.02.2008 05:03 -1,2 C 81 % 1039,5 hPa 0,0 l/m 12,4 km/h (2 Bft) W 275 0 min 0 W/m -4,0 C -6,7 C 12,4 km/h (2 Bft)
17.02.2008 05:05 -1,2 C 81 % 1039,5 hPa 0,0 l/m 11,8 km/h (2 Bft) W 270 0 min 0 W/m -4,0 C -6,2 C 11,8 km/h (2 Bft)
17.02.2008 05:08 -1,1 C 81 % 1039,5 hPa 0,0 l/m 11,3 km/h (2 Bft) W 265 0 min 0 W/m -3,9 C -5,7 C 11,3 km/h (2 Bft)
17.02.2008 05:11 -1,1 C 81 % 1039,5 hPa 0,0 l/m 17,0 km/h (3 Bft) W 275 0 min 0 W/m -3,9 C -9,5 C 17,0 km/h (3 Bft)
17.02.2008 05:14 -1,0 C 81 % 1039,5 hPa 0,0 l/m 11,3 km/h (2 Bft) W 260 0 min 0 W/m -3,8 C -5,6 C 11,3 km/h (2 Bft)
17.02.2008 05:17 -1,0 C 81 % 1039,5 hPa 0,0 l/m 12,3 km/h (2 Bft) W 265 0 min 0 W/m -3,8 C -6,4 C 12,3 km/h (2 Bft)
17.02.2008 05:20 -1,0 C 81 % 1039,5 hPa 0,0 l/m 16,8 km/h (3 Bft) W 270 0 min 0 W/m -3,8 C -9,3 C 16,8 km/h (3 Bft)
17.02.2008 05:23 -1,0 C 81 % 1039,5 hPa 0,0 l/m 13,3 km/h (3 Bft) W 270 0 min 0 W/m -3,8 C -7,1 C 13,3 km/h (3 Bft)
17.02.2008 05:26 -1,0 C 81 % 1039,5 hPa 0,0 l/m 11,6 km/h (2 Bft) W 270 0 min 0 W/m -3,8 C -5,9 C 11,6 km/h (2 Bft)
17.02.2008 05:30 -1,0 C 82 % 1039,5 hPa 0,0 l/m 12,8 km/h (3 Bft) W 275 0 min 0 W/m -3,7 C -6,7 C 12,8 km/h (3 Bft)
17.02.2008 05:33 -1,0 C 82 % 1039,5 hPa 0,0 l/m 10,7 km/h (2 Bft) W 270 0 min 0 W/m -3,7 C -5,1 C 10,7 km/h (2 Bft)
17.02.2008 05:36 -1,0 C 82 % 1039,5 hPa 0,0 l/m 11,4 km/h (2 Bft) W 265 0 min 0 W/m -3,7 C -5,7 C 11,4 km/h (2 Bft)
17.02.2008 05:39 -1,0 C 82 % 1039,5 hPa 0,0 l/m 13,2 km/h (3 Bft) W 275 0 min 0 W/m -3,7 C -7,0 C 13,2 km/h (3 Bft)
17.02.2008 05:42 -1,0 C 83 % 1039,5 hPa 0,0 l/m 10,9 km/h (2 Bft) W 280 0 min 0 W/m -3,5 C -5,3 C 10,9 km/h (2 Bft)
17.02.2008 05:45 -1,0 C 82 % 1039,5 hPa 0,0 l/m 8,7 km/h (2 Bft) W 280 0 min 0 W/m -3,7 C -3,4 C 8,7 km/h (2 Bft)
17.02.2008 05:48 -1,0 C 82 % 1039,5 hPa 0,0 l/m 10,4 km/h (2 Bft) W 280 0 min 0 W/m -3,7 C -4,9 C 10,4 km/h (2 Bft)
17.02.2008 05:51 -1,0 C 82 % 1039,5 hPa 0,0 l/m 13,7 km/h (3 Bft) W-NW 300 0 min 0 W/m -3,7 C -7,4 C 13,7 km/h (3 Bft)
17.02.2008 05:54 -0,9 C 82 % 1038,5 hPa 0,0 l/m 15,1 km/h (3 Bft) W 270 0 min 0 W/m -3,6 C -8,1 C 15,1 km/h (3 Bft)
17.02.2008 05:56 -0,9 C 82 % 1038,5 hPa 0,0 l/m 17,6 km/h (3 Bft) W 275 0 min 0 W/m -3,6 C -9,6 C 17,6 km/h (3 Bft)
17.02.2008 05:59 -0,8 C 82 % 1038,5 hPa 0,0 l/m 9,7 km/h (2 Bft) W 270 0 min 0 W/m -3,5 C -4,1 C 9,7 km/h (2 Bft)
17.02.2008 06:03 -0,8 C 82 % 1038,5 hPa 0,0 l/m 13,4 km/h (3 Bft) W 275 0 min 0 W/m -3,5 C -6,9 C 13,4 km/h (3 Bft)
17.02.2008 06:06 -0,7 C 82 % 1038,5 hPa 0,0 l/m 20,1 km/h (4 Bft) W-NW 285 0 min 0 W/m -3,4 C -10,6 C 20,1 km/h (4 Bft)
17.02.2008 06:09 -0,7 C 82 % 1038,5 hPa 0,0 l/m 17,4 km/h (3 Bft) W-NW 285 0 min 0 W/m -3,4 C -9,2 C 17,4 km/h (3 Bft)
17.02.2008 06:12 -0,6 C 81 % 1038,5 hPa 0,0 l/m 19,3 km/h (3 Bft) W 275 0 min 0 W/m -3,4 C -10,1 C 19,3 km/h (3 Bft)
17.02.2008 06:15 -0,6 C 81 % 1038,5 hPa 0,0 l/m 15,0 km/h (3 Bft) W 280 0 min 0 W/m -3,4 C -7,7 C 15,0 km/h (3 Bft)
17.02.2008 06:18 -0,6 C 81 % 1038,5 hPa 0,0 l/m 17,8 km/h (3 Bft) W-NW 285 0 min 0 W/m -3,4 C -9,3 C 17,8 km/h (3 Bft)
17.02.2008 06:21 -0,6 C 81 % 1038,5 hPa 0,0 l/m 18,6 km/h (3 Bft) W 270 0 min 0 W/m -3,4 C -9,7 C 18,6 km/h (3 Bft)
17.02.2008 06:23 -0,6 C 81 % 1038,5 hPa 0,0 l/m 17,5 km/h (3 Bft) W 270 0 min 0 W/m -3,4 C -9,1 C 17,5 km/h (3 Bft)
17.02.2008 06:26 -0,5 C 81 % 1038,5 hPa 0,0 l/m 19,1 km/h (3 Bft) W 280 0 min 0 W/m -3,3 C -9,8 C 19,1 km/h (3 Bft)
17.02.2008 06:29 -0,5 C 81 % 1038,5 hPa 0,0 l/m 15,2 km/h (3 Bft) W-NW 285 0 min 0 W/m -3,3 C -7,7 C 15,2 km/h (3 Bft)
17.02.2008 06:32 -0,5 C 80 % 1038,5 hPa 0,0 l/m 12,6 km/h (3 Bft) W 280 0 min 0 W/m -3,5 C -6,0 C 12,6 km/h (3 Bft)
17.02.2008 06:35 -0,5 C 80 % 1038,5 hPa 0,0 l/m 16,5 km/h (3 Bft) W 280 0 min 0 W/m -3,5 C -8,5 C 16,5 km/h (3 Bft)
17.02.2008 06:38 -0,5 C 80 % 1038,5 hPa 0,0 l/m 17,6 km/h (3 Bft) W 270 0 min 0 W/m -3,5 C -9,1 C 17,6 km/h (3 Bft)
17.02.2008 06:41 -0,4 C 80 % 1038,5 hPa 0,0 l/m 13,5 km/h (3 Bft) W 280 0 min 0 W/m -3,4 C -6,5 C 13,5 km/h (3 Bft)
17.02.2008 06:45 -0,4 C 79 % 1038,5 hPa 0,0 l/m 17,6 km/h (3 Bft) W-NW 285 0 min 0 W/m -3,6 C -8,9 C 17,6 km/h (3 Bft)
17.02.2008 06:48 -0,4 C 79 % 1038,5 hPa 0,0 l/m 12,2 km/h (2 Bft) W-NW 290 0 min 0 W/m -3,6 C -5,6 C 12,2 km/h (2 Bft)
17.02.2008 06:51 -0,3 C 79 % 1038,5 hPa 0,0 l/m 13,1 km/h (3 Bft) W 280 0 min 0 W/m -3,5 C -6,1 C 13,1 km/h (3 Bft)
17.02.2008 06:54 -0,3 C 79 % 1038,5 hPa 0,0 l/m 13,0 km/h (3 Bft) W-NW 290 0 min 0 W/m -3,5 C -6,1 C 13,0 km/h (3 Bft)
17.02.2008 06:57 -0,3 C 79 % 1038,5 hPa 0,0 l/m 20,5 km/h (4 Bft) W-NW 285 0 min 0 W/m -3,5 C -10,3 C 20,5 km/h (4 Bft)
17.02.2008 07:00 -0,2 C 79 % 1038,5 hPa 0,0 l/m 21,2 km/h (4 Bft) W-NW 285 0 min 0 W/m -3,4 C -10,4 C 21,2 km/h (4 Bft)
17.02.2008 07:02 -0,2 C 79 % 1038,5 hPa 0,0 l/m 15,4 km/h (3 Bft) W 275 0 min 0 W/m -3,4 C -7,5 C 15,4 km/h (3 Bft)
17.02.2008 07:05 -0,2 C 79 % 1037,5 hPa 0,0 l/m 22,3 km/h (4 Bft) W 275 0 min 0 W/m -3,4 C -10,9 C 22,3 km/h (4 Bft)
17.02.2008 07:08 -0,2 C 79 % 1037,5 hPa 0,0 l/m 19,3 km/h (3 Bft) W 275 0 min 0 W/m -3,4 C -9,6 C 19,3 km/h (3 Bft)
17.02.2008 07:12 -0,2 C 79 % 1037,5 hPa 0,0 l/m 16,6 km/h (3 Bft) W 275 0 min 0 W/m -3,4 C -8,2 C 16,6 km/h (3 Bft)
17.02.2008 07:15 -0,2 C 79 % 1037,5 hPa 0,0 l/m 18,8 km/h (3 Bft) W 275 0 min 0 W/m -3,4 C -9,3 C 18,8 km/h (3 Bft)
17.02.2008 07:18 -0,2 C 79 % 1037,5 hPa 0,0 l/m 18,1 km/h (3 Bft) W-NW 295 0 min 0 W/m -3,4 C -9,0 C 18,1 km/h (3 Bft)
17.02.2008 07:21 -0,2 C 79 % 1037,5 hPa 0,0 l/m 14,5 km/h (3 Bft) W 275 0 min 0 W/m -3,4 C -6,9 C 14,5 km/h (3 Bft)
17.02.2008 07:24 -0,2 C 80 % 1037,5 hPa 0,0 l/m 21,1 km/h (4 Bft) W 275 0 min 0 W/m -3,2 C -10,4 C 21,1 km/h (4 Bft)
17.02.2008 07:27 -0,2 C 80 % 1037,5 hPa 0,0 l/m 18,4 km/h (3 Bft) W 275 0 min 0 W/m -3,2 C -9,1 C 18,4 km/h (3 Bft)
17.02.2008 07:30 -0,2 C 80 % 1037,5 hPa 0,0 l/m 18,3 km/h (3 Bft) W-NW 290 0 min 0 W/m -3,2 C -9,1 C 18,3 km/h (3 Bft)
17.02.2008 07:33 -0,2 C 80 % 1037,5 hPa 0,0 l/m 13,9 km/h (3 Bft) W-NW 290 0 min 0 W/m -3,2 C -6,5 C 13,9 km/h (3 Bft)
17.02.2008 07:36 -0,2 C 80 % 1037,5 hPa 0,0 l/m 16,5 km/h (3 Bft) W 280 0 min 0 W/m -3,2 C -8,1 C 16,5 km/h (3 Bft)
17.02.2008 07:38 -0,2 C 80 % 1037,5 hPa 0,0 l/m 17,8 km/h (3 Bft) W-NW 285 0 min 0 W/m -3,2 C -8,8 C 17,8 km/h (3 Bft)
17.02.2008 07:41 -0,2 C 80 % 1037,5 hPa 0,0 l/m 21,1 km/h (4 Bft) W 275 0 min 0 W/m -3,2 C -10,4 C 21,1 km/h (4 Bft)
17.02.2008 07:44 -0,2 C 80 % 1037,5 hPa 0,0 l/m 22,6 km/h (4 Bft) W 280 0 min 0 W/m -3,2 C -11,0 C 22,6 km/h (4 Bft)
17.02.2008 07:47 -0,2 C 80 % 1037,5 hPa 0,0 l/m 12,0 km/h (2 Bft) W 280 0 min 0 W/m -3,2 C -5,2 C 12,0 km/h (2 Bft)
17.02.2008 07:50 -0,2 C 80 % 1037,5 hPa 0,0 l/m 18,8 km/h (3 Bft) W 280 0 min 0 W/m -3,2 C -9,3 C 18,8 km/h (3 Bft)
17.02.2008 07:53 -0,2 C 80 % 1037,5 hPa 0,0 l/m 19,4 km/h (3 Bft) W 275 0 min 0 W/m -3,2 C -9,6 C 19,4 km/h (3 Bft)
17.02.2008 07:56 -0,2 C 80 % 1037,5 hPa 0,0 l/m 17,8 km/h (3 Bft) W 270 0 min 0 W/m -3,2 C -8,8 C 17,8 km/h (3 Bft)
17.02.2008 08:00 -0,2 C 80 % 1037,5 hPa 0,0 l/m 20,2 km/h (4 Bft) W 270 0 min 0 W/m -3,2 C -10,0 C 20,2 km/h (4 Bft)
17.02.2008 08:03 -0,2 C 80 % 1037,5 hPa 0,0 l/m 17,8 km/h (3 Bft) W 280 0 min 0 W/m -3,2 C -8,8 C 17,8 km/h (3 Bft)
17.02.2008 08:05 -0,2 C 80 % 1037,5 hPa 0,0 l/m 22,9 km/h (4 Bft) W-NW 295 0 min 0 W/m -3,2 C -11,2 C 22,9 km/h (4 Bft)
17.02.2008 08:08 -0,2 C 80 % 1037,5 hPa 0,0 l/m 14,9 km/h (3 Bft) W-NW 285 0 min 0 W/m -3,2 C -7,2 C 14,9 km/h (3 Bft)
17.02.2008 08:11 -0,2 C 80 % 1037,5 hPa 0,0 l/m 19,4 km/h (3 Bft) W-NW 285 0 min 0 W/m -3,2 C -9,6 C 19,4 km/h (3 Bft)
17.02.2008 08:14 -0,2 C 80 % 1037,5 hPa 0,0 l/m 23,9 km/h (4 Bft) W 275 0 min 0 W/m -3,2 C -11,6 C 23,9 km/h (4 Bft)
17.02.2008 08:17 0,0 C 80 % 1037,5 hPa 0,0 l/m 23,1 km/h (4 Bft) W-NW 285 0 min 0 W/m -3,0 C -11,0 C 23,1 km/h (4 Bft)
17.02.2008 08:20 0,0 C 80 % 1037,5 hPa 0,0 l/m 21,9 km/h (4 Bft) W-NW 295 0 min 0 W/m -3,0 C -10,5 C 21,9 km/h (4 Bft)
17.02.2008 08:24 0,0 C 81 % 1037,5 hPa 0,0 l/m 15,8 km/h (3 Bft) W-NW 285 0 min 0 W/m -2,9 C -7,5 C 15,8 km/h (3 Bft)
17.02.2008 08:27 0,1 C 81 % 1037,5 hPa 0,0 l/m 20,6 km/h (4 Bft) W-NW 285 0 min 0 W/m -2,8 C -9,8 C 20,6 km/h (4 Bft)
17.02.2008 08:30 0,0 C 80 % 1037,5 hPa 0,0 l/m 20,6 km/h (4 Bft) W-NW 285 0 min 0 W/m -3,0 C -9,9 C 20,6 km/h (4 Bft)
17.02.2008 08:33 0,1 C 81 % 1037,5 hPa 0,0 l/m 22,3 km/h (4 Bft) W-NW 285 0 min 0 W/m -2,8 C -10,5 C 22,3 km/h (4 Bft)
17.02.2008 08:36 0,1 C 81 % 1037,5 hPa 0,0 l/m 19,4 km/h (3 Bft) W-NW 285 0 min 0 W/m -2,8 C -9,2 C 19,4 km/h (3 Bft)
17.02.2008 08:39 0,2 C 81 % 1037,5 hPa 0,0 l/m 18,3 km/h (3 Bft) W 275 0 min 0 W/m -2,7 C -8,6 C 18,3 km/h (3 Bft)
17.02.2008 08:42 0,2 C 82 % 1037,5 hPa 0,0 l/m 20,4 km/h (4 Bft) W-NW 285 0 min 0 W/m -2,5 C -9,6 C 20,4 km/h (4 Bft)
17.02.2008 08:45 0,3 C 82 % 1037,5 hPa 0,0 l/m 20,4 km/h (4 Bft) W-NW 285 0 min 0 W/m -2,4 C -9,4 C 20,4 km/h (4 Bft)
17.02.2008 08:47 0,3 C 82 % 1037,5 hPa 0,0 l/m 18,0 km/h (3 Bft) W 280 0 min 0 W/m -2,4 C -8,3 C 18,0 km/h (3 Bft)
17.02.2008 08:50 0,3 C 82 % 1037,5 hPa 0,0 l/m 21,5 km/h (4 Bft) W-NW 285 0 min 0 W/m -2,4 C -9,9 C 21,5 km/h (4 Bft)
17.02.2008 08:53 0,4 C 82 % 1037,5 hPa 0,0 l/m 23,4 km/h (4 Bft) W-NW 285 0 min 0 W/m -2,3 C -10,6 C 23,4 km/h (4 Bft)
17.02.2008 08:56 0,4 C 82 % 1037,5 hPa 0,0 l/m 17,3 km/h (3 Bft) W-NW 290 0 min 0 W/m -2,3 C -7,8 C 17,3 km/h (3 Bft)
17.02.2008 08:59 0,4 C 82 % 1037,5 hPa 0,0 l/m 17,3 km/h (3 Bft) W-NW 295 0 min 0 W/m -2,3 C -7,8 C 17,3 km/h (3 Bft)
17.02.2008 09:03 0,4 C 82 % 1037,5 hPa 0,0 l/m 16,1 km/h (3 Bft) W-NW 295 0 min 0 W/m -2,3 C -7,1 C 16,1 km/h (3 Bft)
17.02.2008 09:06 0,5 C 83 % 1037,5 hPa 0,0 l/m 20,3 km/h (4 Bft) W-NW 285 0 min 0 W/m -2,0 C -9,1 C 20,3 km/h (4 Bft)
17.02.2008 09:08 2,5 C 87 % 1037,5 hPa 0,0 l/m 17,1 km/h (3 Bft) W 280 0 min 0 W/m 0,6 C -5,1 C 17,1 km/h (3 Bft)
17.02.2008 09:11 4,1 C 76 % 1037,5 hPa 0,0 l/m 17,1 km/h (3 Bft) W 280 0 min 0 W/m 0,3 C -3,1 C 17,1 km/h (3 Bft)
17.02.2008 09:14 5,1 C 72 % 1037,5 hPa 0,0 l/m 16,8 km/h (3 Bft) W 280 0 min 0 W/m 0,5 C -1,7 C 16,8 km/h (3 Bft)
17.02.2008 09:17 4,7 C 66 % 1037,5 hPa 0,0 l/m 25,5 km/h (4 Bft) W-NW 285 0 min 0 W/m -1,1 C -5,5 C 25,5 km/h (4 Bft)
17.02.2008 09:20 3,5 C 69 % 1037,5 hPa 0,0 l/m 16,6 km/h (3 Bft) W-NW 285 0 min 0 W/m -1,6 C -3,6 C 16,6 km/h (3 Bft)
17.02.2008 09:23 2,6 C 73 % 1037,5 hPa 0,0 l/m 20,7 km/h (4 Bft) W 270 0 min 0 W/m -1,7 C -6,6 C 20,7 km/h (4 Bft)
17.02.2008 09:27 2,1 C 76 % 1037,5 hPa 0,0 l/m 24,1 km/h (4 Bft) W 265 0 min 0 W/m -1,7 C -8,6 C 24,1 km/h (4 Bft)
17.02.2008 09:30 1,6 C 80 % 1037,5 hPa 0,0 l/m 18,6 km/h (3 Bft) W 270 0 min 0 W/m -1,5 C -6,9 C 18,6 km/h (3 Bft)
17.02.2008 09:33 1,5 C 81 % 1037,5 hPa 0,0 l/m 20,6 km/h (4 Bft) W 265 0 min 0 W/m -1,4 C -8,0 C 20,6 km/h (4 Bft)
17.02.2008 09:36 1,4 C 82 % 1037,5 hPa 0,0 l/m 22,4 km/h (4 Bft) W 270 0 min 0 W/m -1,3 C -8,8 C 22,4 km/h (4 Bft)
17.02.2008 09:39 1,6 C 84 % 1037,5 hPa 0,0 l/m 20,0 km/h (4 Bft) W 275 0 min 0 W/m -0,8 C -7,6 C 20,0 km/h (4 Bft)
17.02.2008 09:42 1,7 C 83 % 1037,5 hPa 0,0 l/m 25,6 km/h (4 Bft) W 265 0 min 0 W/m -0,9 C -9,6 C 25,6 km/h (4 Bft)
17.02.2008 09:45 1,7 C 83 % 1037,5 hPa 0,0 l/m 24,9 km/h (4 Bft) W 260 0 min 0 W/m -0,9 C -9,4 C 24,9 km/h (4 Bft)
17.02.2008 09:47 1,9 C 83 % 1037,5 hPa 0,0 l/m 17,6 km/h (3 Bft) W 270 0 min 0 W/m -0,7 C -6,1 C 17,6 km/h (3 Bft)
17.02.2008 09:50 1,9 C 83 % 1037,5 hPa 0,0 l/m 20,3 km/h (4 Bft) W-SW 255 0 min 0 W/m -0,7 C -7,3 C 20,3 km/h (4 Bft)
17.02.2008 09:53 2,0 C 83 % 1037,5 hPa 0,0 l/m 21,6 km/h (4 Bft) W-NW 285 0 min 0 W/m -0,6 C -7,7 C 21,6 km/h (4 Bft)
17.02.2008 09:56 2,2 C 83 % 1037,5 hPa 0,0 l/m 16,7 km/h (3 Bft) W-NW 285 0 min 0 W/m -0,4 C -5,2 C 16,7 km/h (3 Bft)
17.02.2008 09:59 2,2 C 82 % 1037,5 hPa 0,0 l/m 22,6 km/h (4 Bft) W 265 0 min 0 W/m -0,5 C -7,9 C 22,6 km/h (4 Bft)
17.02.2008 10:03 2,3 C 82 % 1037,5 hPa 0,0 l/m 26,2 km/h (4 Bft) W 265 0 min 0 W/m -0,4 C -9,0 C 26,2 km/h (4 Bft)
17.02.2008 10:06 2,2 C 83 % 1036,5 hPa 0,0 l/m 24,1 km/h (4 Bft) W 265 0 min 0 W/m -0,4 C -8,4 C 24,1 km/h (4 Bft)
17.02.2008 10:08 2,3 C 83 % 1036,5 hPa 0,0 l/m 15,7 km/h (3 Bft) W 270 0 min 0 W/m -0,3 C -4,6 C 15,7 km/h (3 Bft)
17.02.2008 10:11 2,4 C 83 % 1037,5 hPa 0,0 l/m 24,7 km/h (4 Bft) W 265 0 min 0 W/m -0,2 C -8,4 C 24,7 km/h (4 Bft)
17.02.2008 10:14 2,4 C 83 % 1036,5 hPa 0,0 l/m 19,4 km/h (3 Bft) W 265 0 min 0 W/m -0,2 C -6,3 C 19,4 km/h (3 Bft)
17.02.2008 10:17 2,4 C 83 % 1036,5 hPa 0,0 l/m 20,8 km/h (4 Bft) W 260 0 min 0 W/m -0,2 C -6,9 C 20,8 km/h (4 Bft)
17.02.2008 10:20 2,4 C 83 % 1036,5 hPa 0,0 l/m 26,0 km/h (4 Bft) W 265 0 min 0 W/m -0,2 C -8,8 C 26,0 km/h (4 Bft)
17.02.2008 10:23 2,5 C 83 % 1036,5 hPa 0,0 l/m 22,3 km/h (4 Bft) W 265 0 min 0 W/m -0,1 C -7,3 C 22,3 km/h (4 Bft)
17.02.2008 10:27 2,6 C 83 % 1036,5 hPa 0,0 l/m 24,7 km/h (4 Bft) W 265 0 min 0 W/m 0,0 C -8,1 C 24,7 km/h (4 Bft)
17.02.2008 10:30 2,7 C 83 % 1036,5 hPa 0,0 l/m 19,8 km/h (3 Bft) W 280 0 min 0 W/m 0,1 C -6,1 C 19,8 km/h (3 Bft)
17.02.2008 10:33 2,8 C 82 % 1036,5 hPa 0,0 l/m 21,9 km/h (4 Bft) W 270 0 min 0 W/m 0,0 C -6,8 C 21,9 km/h (4 Bft)
17.02.2008 10:36 2,9 C 82 % 1036,5 hPa 0,0 l/m 24,1 km/h (4 Bft) W 265 0 min 0 W/m 0,1 C -7,5 C 24,1 km/h (4 Bft)
17.02.2008 10:39 3,0 C 82 % 1036,5 hPa 0,0 l/m 20,0 km/h (4 Bft) W 270 0 min 0 W/m 0,2 C -5,8 C 20,0 km/h (4 Bft)
17.02.2008 10:42 2,8 C 82 % 1036,5 hPa 0,0 l/m 25,1 km/h (4 Bft) W 260 0 min 0 W/m 0,0 C -8,0 C 25,1 km/h (4 Bft)
17.02.2008 10:45 2,8 C 82 % 1036,5 hPa 0,0 l/m 22,6 km/h (4 Bft) W 265 0 min 0 W/m 0,0 C -7,1 C 22,6 km/h (4 Bft)
17.02.2008 10:47 2,9 C 82 % 1036,5 hPa 0,0 l/m 17,9 km/h (3 Bft) W 270 0 min 0 W/m 0,1 C -4,9 C 17,9 km/h (3 Bft)
17.02.2008 10:50 2,9 C 83 % 1036,5 hPa 0,0 l/m 11,5 km/h (2 Bft) W 275 0 min 0 W/m 0,3 C -1,3 C 11,5 km/h (2 Bft)
17.02.2008 10:53 2,8 C 83 % 1036,5 hPa 0,0 l/m 21,1 km/h (4 Bft) W 265 0 min 0 W/m 0,2 C -6,5 C 21,1 km/h (4 Bft)
17.02.2008 10:56 2,8 C 83 % 1036,5 hPa 0,0 l/m 20,3 km/h (4 Bft) W 265 0 min 0 W/m 0,2 C -6,1 C 20,3 km/h (4 Bft)
17.02.2008 10:59 2,8 C 83 % 1036,5 hPa 0,0 l/m 22,6 km/h (4 Bft) W 260 0 min 0 W/m 0,2 C -7,1 C 22,6 km/h (4 Bft)
17.02.2008 11:03 2,7 C 84 % 1036,5 hPa 0,0 l/m 20,8 km/h (4 Bft) W-NW 285 0 min 0 W/m 0,3 C -6,5 C 20,8 km/h (4 Bft)
17.02.2008 11:06 2,8 C 83 % 1036,5 hPa 0,0 l/m 21,2 km/h (4 Bft) W 270 0 min 0 W/m 0,2 C -6,5 C 21,2 km/h (4 Bft)
17.02.2008 11:08 2,9 C 84 % 1036,5 hPa 0,0 l/m 18,6 km/h (3 Bft) W 265 0 min 0 W/m 0,5 C -5,3 C 18,6 km/h (3 Bft)
17.02.2008 11:11 2,8 C 83 % 1036,5 hPa 0,0 l/m 21,8 km/h (4 Bft) W 265 0 min 0 W/m 0,2 C -6,8 C 21,8 km/h (4 Bft)
17.02.2008 11:14 2,6 C 84 % 1036,5 hPa 0,0 l/m 20,5 km/h (4 Bft) W 275 0 min 0 W/m 0,2 C -6,5 C 20,5 km/h (4 Bft)
17.02.2008 11:17 2,6 C 84 % 1036,5 hPa 0,0 l/m 16,9 km/h (3 Bft) W 260 0 min 0 W/m 0,2 C -4,8 C 16,9 km/h (3 Bft)
17.02.2008 11:20 2,6 C 84 % 1036,5 hPa 0,0 l/m 17,5 km/h (3 Bft) W 260 0 min 0 W/m 0,2 C -5,1 C 17,5 km/h (3 Bft)
17.02.2008 11:23 2,6 C 85 % 1036,5 hPa 0,0 l/m 27,1 km/h (5 Bft) W 260 0 min 0 W/m 0,3 C -8,9 C 27,1 km/h (5 Bft)
17.02.2008 11:27 2,6 C 85 % 1036,5 hPa 0,0 l/m 19,7 km/h (3 Bft) W 260 0 min 0 W/m 0,3 C -6,1 C 19,7 km/h (3 Bft)
17.02.2008 11:30 2,6 C 85 % 1036,5 hPa 0,0 l/m 21,1 km/h (4 Bft) W 265 0 min 0 W/m 0,3 C -6,7 C 21,1 km/h (4 Bft)
17.02.2008 11:33 2,7 C 85 % 1036,5 hPa 0,0 l/m 23,3 km/h (4 Bft) W 270 0 min 0 W/m 0,4 C -7,5 C 23,3 km/h (4 Bft)
17.02.2008 11:36 2,7 C 85 % 1036,5 hPa 0,0 l/m 21,9 km/h (4 Bft) W 260 0 min 0 W/m 0,4 C -6,9 C 21,9 km/h (4 Bft)
17.02.2008 11:39 2,7 C 84 % 1036,5 hPa 0,0 l/m 20,0 km/h (4 Bft) W 265 0 min 0 W/m 0,3 C -6,1 C 20,0 km/h (4 Bft)
17.02.2008 11:42 2,6 C 84 % 1036,5 hPa 0,0 l/m 19,9 km/h (4 Bft) W 265 0 min 0 W/m 0,2 C -6,2 C 19,9 km/h (4 Bft)
17.02.2008 11:45 2,5 C 84 % 1036,5 hPa 0,0 l/m 18,5 km/h (3 Bft) W 265 0 min 0 W/m 0,1 C -5,7 C 18,5 km/h (3 Bft)
17.02.2008 11:47 2,5 C 84 % 1036,5 hPa 0,0 l/m 21,8 km/h (4 Bft) W 265 0 min 0 W/m 0,1 C -7,1 C 21,8 km/h (4 Bft)
17.02.2008 11:50 2,6 C 84 % 1036,5 hPa 0,0 l/m 28,6 km/h (5 Bft) W 265 0 min 0 W/m 0,2 C -9,3 C 28,6 km/h (5 Bft)
17.02.2008 11:53 2,5 C 84 % 1036,5 hPa 0,0 l/m 23,2 km/h (4 Bft) W 260 0 min 0 W/m 0,1 C -7,7 C 23,2 km/h (4 Bft)
17.02.2008 11:56 2,6 C 84 % 1036,5 hPa 0,0 l/m 19,8 km/h (3 Bft) W 270 0 min 0 W/m 0,2 C -6,2 C 19,8 km/h (3 Bft)
17.02.2008 11:59 2,5 C 84 % 1036,5 hPa 0,0 l/m 21,5 km/h (4 Bft) W 260 0 min 0 W/m 0,1 C -7,0 C 21,5 km/h (4 Bft)
17.02.2008 12:03 2,6 C 84 % 1036,5 hPa 0,0 l/m 21,5 km/h (4 Bft) W 260 0 min 0 W/m 0,2 C -6,9 C 21,5 km/h (4 Bft)
17.02.2008 12:06 2,6 C 84 % 1036,5 hPa 0,0 l/m 26,5 km/h (4 Bft) W 265 0 min 0 W/m 0,2 C -8,7 C 26,5 km/h (4 Bft)
17.02.2008 12:08 2,7 C 84 % 1036,5 hPa 0,0 l/m 23,9 km/h (4 Bft) W 260 0 min 0 W/m 0,3 C -7,7 C 23,9 km/h (4 Bft)
17.02.2008 12:11 2,7 C 84 % 1036,5 hPa 0,0 l/m 23,6 km/h (4 Bft) W 265 0 min 0 W/m 0,3 C -7,6 C 23,6 km/h (4 Bft)
17.02.2008 12:14 2,7 C 83 % 1036,5 hPa 0,0 l/m 25,1 km/h (4 Bft) W 270 0 min 0 W/m 0,1 C -8,1 C 25,1 km/h (4 Bft)
17.02.2008 12:17 2,7 C 83 % 1036,5 hPa 0,0 l/m 25,1 km/h (4 Bft) W 260 0 min 0 W/m 0,1 C -8,1 C 25,1 km/h (4 Bft)
17.02.2008 12:20 2,8 C 83 % 1036,5 hPa 0,0 l/m 23,0 km/h (4 Bft) W 260 0 min 0 W/m 0,2 C -7,2 C 23,0 km/h (4 Bft)
17.02.2008 12:24 2,9 C 83 % 1035,5 hPa 0,0 l/m 23,0 km/h (4 Bft) W 260 0 min 0 W/m 0,3 C -7,1 C 23,0 km/h (4 Bft)
17.02.2008 12:27 3,0 C 82 % 1035,5 hPa 0,0 l/m 29,1 km/h (5 Bft) W 265 0 min 0 W/m 0,2 C -8,9 C 29,1 km/h (5 Bft)
17.02.2008 12:30 3,1 C 82 % 1035,5 hPa 0,0 l/m 26,8 km/h (4 Bft) W 260 0 min 0 W/m 0,3 C -8,1 C 26,8 km/h (4 Bft)
17.02.2008 12:33 3,1 C 81 % 1035,5 hPa 0,0 l/m 31,1 km/h (5 Bft) W 265 0 min 0 W/m 0,2 C -9,3 C 31,1 km/h (5 Bft)
17.02.2008 12:36 3,1 C 82 % 1035,5 hPa 0,0 l/m 20,7 km/h (4 Bft) W-SW 250 0 min 0 W/m 0,3 C -5,9 C 20,7 km/h (4 Bft)
17.02.2008 12:39 3,2 C 82 % 1035,5 hPa 0,0 l/m 21,7 km/h (4 Bft) W 270 0 min 0 W/m 0,4 C -6,2 C 21,7 km/h (4 Bft)
17.02.2008 12:41 3,4 C 81 % 1035,5 hPa 0,0 l/m 23,4 km/h (4 Bft) W 275 0 min 0 W/m 0,5 C -6,6 C 23,4 km/h (4 Bft)
17.02.2008 12:44 3,4 C 81 % 1035,5 hPa 0,0 l/m 26,0 km/h (4 Bft) W 265 0 min 0 W/m 0,5 C -7,4 C 26,0 km/h (4 Bft)
17.02.2008 12:47 3,3 C 81 % 1035,5 hPa 0,0 l/m 24,6 km/h (4 Bft) W 260 0 min 0 W/m 0,4 C -7,1 C 24,6 km/h (4 Bft)
17.02.2008 12:50 3,4 C 81 % 1035,5 hPa 0,0 l/m 25,9 km/h (4 Bft) W 275 0 min 0 W/m 0,5 C -7,4 C 25,9 km/h (4 Bft)
17.02.2008 12:53 3,4 C 81 % 1035,5 hPa 0,0 l/m 22,3 km/h (4 Bft) W 260 0 min 0 W/m 0,5 C -6,2 C 22,3 km/h (4 Bft)
17.02.2008 12:57 3,4 C 81 % 1035,5 hPa 0,0 l/m 30,2 km/h (5 Bft) W 270 0 min 0 W/m 0,5 C -8,7 C 30,2 km/h (5 Bft)
17.02.2008 13:00 3,5 C 81 % 1035,5 hPa 0,0 l/m 21,9 km/h (4 Bft) W-NW 285 0 min 0 W/m 0,6 C -5,9 C 21,9 km/h (4 Bft)
17.02.2008 13:02 3,5 C 81 % 1035,5 hPa 0,0 l/m 19,3 km/h (3 Bft) W 270 0 min 0 W/m 0,6 C -4,8 C 19,3 km/h (3 Bft)
17.02.2008 13:05 3,5 C 81 % 1035,5 hPa 0,0 l/m 19,3 km/h (3 Bft) W 270 0 min 0 W/m 0,6 C -4,8 C 19,3 km/h (3 Bft)
17.02.2008 13:08 3,7 C 81 % 1035,5 hPa 0,0 l/m 20,3 km/h (4 Bft) W-NW 290 0 min 0 W/m 0,7 C -5,0 C 20,3 km/h (4 Bft)
17.02.2008 13:11 3,7 C 81 % 1035,5 hPa 0,0 l/m 23,3 km/h (4 Bft) W 275 0 min 0 W/m 0,7 C -6,1 C 23,3 km/h (4 Bft)
17.02.2008 13:15 3,8 C 82 % 1035,5 hPa 0,0 l/m 23,1 km/h (4 Bft) W 270 0 min 0 W/m 1,0 C -5,9 C 23,1 km/h (4 Bft)
17.02.2008 13:18 3,8 C 82 % 1035,5 hPa 0,0 l/m 18,6 km/h (3 Bft) W 275 0 min 0 W/m 1,0 C -4,1 C 18,6 km/h (3 Bft)
17.02.2008 13:21 3,8 C 82 % 1035,5 hPa 0,0 l/m 24,5 km/h (4 Bft) W 260 0 min 0 W/m 1,0 C -6,4 C 24,5 km/h (4 Bft)
17.02.2008 13:24 3,8 C 82 % 1035,5 hPa 0,0 l/m 23,9 km/h (4 Bft) W 275 0 min 0 W/m 1,0 C -6,2 C 23,9 km/h (4 Bft)
17.02.2008 13:27 3,9 C 82 % 1035,5 hPa 0,0 l/m 22,0 km/h (4 Bft) W 270 0 min 0 W/m 1,1 C -5,4 C 22,0 km/h (4 Bft)
17.02.2008 13:30 3,9 C 82 % 1035,5 hPa 0,0 l/m 23,3 km/h (4 Bft) W 260 0 min 0 W/m 1,1 C -5,9 C 23,3 km/h (4 Bft)
17.02.2008 13:32 3,9 C 82 % 1035,5 hPa 0,0 l/m 22,8 km/h (4 Bft) W 280 0 min 0 W/m 1,1 C -5,7 C 22,8 km/h (4 Bft)
17.02.2008 13:35 3,9 C 83 % 1035,5 hPa 0,0 l/m 20,4 km/h (4 Bft) W-NW 290 0 min 0 W/m 1,3 C -4,8 C 20,4 km/h (4 Bft)
17.02.2008 13:38 3,9 C 83 % 1035,5 hPa 0,0 l/m 22,6 km/h (4 Bft) W 270 0 min 0 W/m 1,3 C -5,6 C 22,6 km/h (4 Bft)
17.02.2008 13:41 3,9 C 82 % 1035,5 hPa 0,0 l/m 28,2 km/h (5 Bft) W-NW 285 0 min 0 W/m 1,1 C -7,4 C 28,2 km/h (5 Bft)
17.02.2008 13:45 4,0 C 83 % 1035,5 hPa 0,0 l/m 25,7 km/h (4 Bft) W 275 0 min 0 W/m 1,4 C -6,5 C 25,7 km/h (4 Bft)
17.02.2008 13:48 4,0 C 82 % 1035,5 hPa 0,0 l/m 24,4 km/h (4 Bft) W 280 0 min 0 W/m 1,2 C -6,1 C 24,4 km/h (4 Bft)
17.02.2008 13:51 4,0 C 82 % 1035,5 hPa 0,0 l/m 25,1 km/h (4 Bft) W 275 0 min 0 W/m 1,2 C -6,3 C 25,1 km/h (4 Bft)
17.02.2008 13:54 3,9 C 83 % 1035,5 hPa 0,0 l/m 17,7 km/h (3 Bft) W-NW 285 0 min 0 W/m 1,3 C -3,6 C 17,7 km/h (3 Bft)
17.02.2008 13:57 3,9 C 83 % 1035,5 hPa 0,0 l/m 23,1 km/h (4 Bft) W-NW 285 0 min 0 W/m 1,3 C -5,8 C 23,1 km/h (4 Bft)
17.02.2008 14:00 4,1 C 83 % 1035,5 hPa 0,0 l/m 23,2 km/h (4 Bft) W 275 0 min 0 W/m 1,5 C -5,6 C 23,2 km/h (4 Bft)
17.02.2008 14:03 4,0 C 83 % 1034,5 hPa 0,0 l/m 28,3 km/h (5 Bft) W-NW 285 0 min 0 W/m 1,4 C -7,3 C 28,3 km/h (5 Bft)
17.02.2008 14:06 4,0 C 83 % 1034,5 hPa 0,0 l/m 19,7 km/h (3 Bft) W-NW 285 0 min 0 W/m 1,4 C -4,3 C 19,7 km/h (3 Bft)
17.02.2008 14:09 4,1 C 83 % 1034,5 hPa 0,0 l/m 25,9 km/h (4 Bft) W-NW 290 0 min 0 W/m 1,5 C -6,5 C 25,9 km/h (4 Bft)
17.02.2008 14:12 4,0 C 83 % 1034,5 hPa 0,0 l/m 30,3 km/h (5 Bft) W-NW 295 0 min 0 W/m 1,4 C -7,9 C 30,3 km/h (5 Bft)
17.02.2008 14:15 4,1 C 84 % 1034,5 hPa 0,0 l/m 20,0 km/h (4 Bft) W-NW 290 0 min 0 W/m 1,6 C -4,3 C 20,0 km/h (4 Bft)
17.02.2008 14:18 4,2 C 84 % 1034,5 hPa 0,0 l/m 20,0 km/h (4 Bft) W-NW 290 0 min 0 W/m 1,7 C -4,2 C 20,0 km/h (4 Bft)
17.02.2008 14:20 4,3 C 84 % 1034,5 hPa 0,0 l/m 28,0 km/h (5 Bft) W-NW 285 0 min 0 W/m 1,8 C -6,8 C 28,0 km/h (5 Bft)
17.02.2008 14:23 4,3 C 84 % 1034,5 hPa 0,0 l/m 20,6 km/h (4 Bft) W 280 0 min 0 W/m 1,8 C -4,3 C 20,6 km/h (4 Bft)
17.02.2008 14:26 4,3 C 84 % 1034,5 hPa 0,0 l/m 25,5 km/h (4 Bft) W-NW 285 0 min 0 W/m 1,8 C -6,1 C 25,5 km/h (4 Bft)
17.02.2008 14:29 4,2 C 84 % 1034,5 hPa 0,0 l/m 33,1 km/h (5 Bft) W-NW 285 0 min 0 W/m 1,7 C -8,3 C 33,1 km/h (5 Bft)
17.02.2008 14:32 4,3 C 84 % 1034,5 hPa 0,0 l/m 21,8 km/h (4 Bft) W-NW 300 0 min 0 W/m 1,8 C -4,8 C 21,8 km/h (4 Bft)
17.02.2008 14:36 4,3 C 84 % 1034,5 hPa 0,0 l/m 20,4 km/h (4 Bft) W-NW 290 0 min 0 W/m 1,8 C -4,2 C 20,4 km/h (4 Bft)
17.02.2008 14:39 4,3 C 84 % 1034,5 hPa 0,0 l/m 28,6 km/h (5 Bft) W 280 0 min 0 W/m 1,8 C -7,0 C 28,6 km/h (5 Bft)
17.02.2008 14:42 4,3 C 84 % 1034,5 hPa 0,0 l/m 22,4 km/h (4 Bft) W-NW 295 0 min 0 W/m 1,8 C -5,0 C 22,4 km/h (4 Bft)
17.02.2008 14:45 4,3 C 85 % 1034,5 hPa 0,0 l/m 20,3 km/h (4 Bft) W-NW 295 0 min 0 W/m 2,0 C -4,2 C 20,3 km/h (4 Bft)
17.02.2008 14:48 4,2 C 85 % 1034,5 hPa 0,0 l/m 21,1 km/h (4 Bft) W-NW 285 0 min 0 W/m 1,9 C -4,6 C 21,1 km/h (4 Bft)
17.02.2008 14:51 4,3 C 85 % 1034,5 hPa 0,0 l/m 23,1 km/h (4 Bft) W 275 0 min 0 W/m 2,0 C -5,2 C 23,1 km/h (4 Bft)
17.02.2008 14:53 4,2 C 85 % 1034,5 hPa 0,0 l/m 21,8 km/h (4 Bft) W-NW 290 0 min 0 W/m 1,9 C -4,9 C 21,8 km/h (4 Bft)
17.02.2008 14:56 4,3 C 86 % 1034,5 hPa 0,0 l/m 25,8 km/h (4 Bft) W-NW 290 0 min 0 W/m 2,2 C -6,1 C 25,8 km/h (4 Bft)
17.02.2008 14:59 4,2 C 86 % 1034,5 hPa 0,0 l/m 22,3 km/h (4 Bft) W 275 0 min 0 W/m 2,1 C -5,1 C 22,3 km/h (4 Bft)
17.02.2008 15:03 4,3 C 86 % 1034,5 hPa 0,0 l/m 24,9 km/h (4 Bft) W 275 0 min 0 W/m 2,2 C -5,9 C 24,9 km/h (4 Bft)
17.02.2008 15:06 4,3 C 86 % 1034,5 hPa 0,0 l/m 21,5 km/h (4 Bft) W-NW 290 0 min 0 W/m 2,2 C -4,7 C 21,5 km/h (4 Bft)
17.02.2008 15:09 4,3 C 87 % 1034,5 hPa 0,0 l/m 22,6 km/h (4 Bft) W-NW 285 0 min 0 W/m 2,3 C -5,1 C 22,6 km/h (4 Bft)
17.02.2008 15:11 4,3 C 87 % 1034,5 hPa 0,0 l/m 26,6 km/h (4 Bft) W-NW 290 0 min 0 W/m 2,3 C -6,4 C 26,6 km/h (4 Bft)
17.02.2008 15:14 4,3 C 87 % 1034,5 hPa 0,0 l/m 21,9 km/h (4 Bft) NW 305 0 min 0 W/m 2,3 C -4,8 C 21,9 km/h (4 Bft)
17.02.2008 15:17 4,3 C 87 % 1034,5 hPa 0,0 l/m 20,3 km/h (4 Bft) W-NW 285 0 min 0 W/m 2,3 C -4,2 C 20,3 km/h (4 Bft)
17.02.2008 15:20 4,3 C 88 % 1034,5 hPa 0,0 l/m 22,1 km/h (4 Bft) W-NW 285 0 min 0 W/m 2,5 C -4,9 C 22,1 km/h (4 Bft)
17.02.2008 15:24 4,4 C 88 % 1034,5 hPa 0,0 l/m 22,0 km/h (4 Bft) W-NW 290 0 min 0 W/m 2,6 C -4,7 C 22,0 km/h (4 Bft)
17.02.2008 15:27 4,4 C 88 % 1034,5 hPa 0,0 l/m 22,7 km/h (4 Bft) W-NW 285 0 min 0 W/m 2,6 C -5,0 C 22,7 km/h (4 Bft)
17.02.2008 15:30 4,5 C 88 % 1034,5 hPa 0,0 l/m 15,3 km/h (3 Bft) W-NW 285 0 min 0 W/m 2,7 C -1,7 C 15,3 km/h (3 Bft)
17.02.2008 15:33 4,5 C 88 % 1034,5 hPa 0,0 l/m 26,0 km/h (4 Bft) W 275 0 min 0 W/m 2,7 C -5,9 C 26,0 km/h (4 Bft)
17.02.2008 15:36 4,5 C 88 % 1034,5 hPa 0,0 l/m 22,3 km/h (4 Bft) W 280 0 min 0 W/m 2,7 C -4,7 C 22,3 km/h (4 Bft)
17.02.2008 15:39 4,5 C 88 % 1034,5 hPa 0,0 l/m 26,4 km/h (4 Bft) W-NW 295 0 min 0 W/m 2,7 C -6,1 C 26,4 km/h (4 Bft)
17.02.2008 15:41 4,6 C 88 % 1034,5 hPa 0,0 l/m 25,6 km/h (4 Bft) W-NW 300 0 min 0 W/m 2,8 C -5,7 C 25,6 km/h (4 Bft)
17.02.2008 15:44 4,6 C 88 % 1034,5 hPa 0,0 l/m 23,2 km/h (4 Bft) NW 310 0 min 0 W/m 2,8 C -4,9 C 23,2 km/h (4 Bft)
17.02.2008 15:47 4,6 C 88 % 1033,5 hPa 0,0 l/m 26,5 km/h (4 Bft) W-NW 295 0 min 0 W/m 2,8 C -6,0 C 26,5 km/h (4 Bft)
17.02.2008 15:50 4,7 C 88 % 1033,5 hPa 0,0 l/m 19,5 km/h (3 Bft) W-NW 285 0 min 0 W/m 2,9 C -3,4 C 19,5 km/h (3 Bft)
17.02.2008 15:53 4,7 C 88 % 1033,5 hPa 0,0 l/m 25,2 km/h (4 Bft) W-NW 290 0 min 0 W/m 2,9 C -5,4 C 25,2 km/h (4 Bft)
17.02.2008 15:57 4,7 C 88 % 1034,5 hPa 0,0 l/m 17,7 km/h (3 Bft) W-NW 285 0 min 0 W/m 2,9 C -2,6 C 17,7 km/h (3 Bft)
17.02.2008 16:00 4,7 C 88 % 1034,5 hPa 0,0 l/m 20,2 km/h (4 Bft) W-NW 300 0 min 0 W/m 2,9 C -3,6 C 20,2 km/h (4 Bft)
17.02.2008 16:02 4,6 C 88 % 1034,5 hPa 0,0 l/m 22,8 km/h (4 Bft) NW 305 0 min 0 W/m 2,8 C -4,7 C 22,8 km/h (4 Bft)
17.02.2008 16:05 4,6 C 88 % 1034,5 hPa 0,0 l/m 24,8 km/h (4 Bft) W-NW 295 0 min 0 W/m 2,8 C -5,4 C 24,8 km/h (4 Bft)
17.02.2008 16:08 4,6 C 88 % 1033,5 hPa 0,0 l/m 21,0 km/h (4 Bft) W-NW 295 0 min 0 W/m 2,8 C -4,1 C 21,0 km/h (4 Bft)
17.02.2008 16:12 4,6 C 88 % 1033,5 hPa 0,0 l/m 25,1 km/h (4 Bft) W-NW 300 0 min 0 W/m 2,8 C -5,5 C 25,1 km/h (4 Bft)
17.02.2008 16:15 4,7 C 87 % 1033,5 hPa 0,0 l/m 21,9 km/h (4 Bft) NW 305 0 min 0 W/m 2,7 C -4,3 C 21,9 km/h (4 Bft)
17.02.2008 16:18 4,7 C 85 % 1033,5 hPa 0,0 l/m 27,1 km/h (5 Bft) NW 305 0 min 0 W/m 2,4 C -6,0 C 27,1 km/h (5 Bft)
17.02.2008 16:21 4,7 C 84 % 1033,5 hPa 0,0 l/m 26,6 km/h (4 Bft) NW 310 0 min 0 W/m 2,2 C -5,8 C 26,6 km/h (4 Bft)
17.02.2008 16:24 4,7 C 83 % 1033,5 hPa 0,0 l/m 22,2 km/h (4 Bft) NW 305 0 min 0 W/m 2,1 C -4,4 C 22,2 km/h (4 Bft)
17.02.2008 16:27 4,8 C 84 % 1033,5 hPa 0,0 l/m 23,2 km/h (4 Bft) NW 315 0 min 0 W/m 2,3 C -4,6 C 23,2 km/h (4 Bft)
17.02.2008 16:29 4,8 C 84 % 1033,5 hPa 0,0 l/m 18,3 km/h (3 Bft) NW 310 0 min 0 W/m 2,3 C -2,7 C 18,3 km/h (3 Bft)
17.02.2008 16:32 4,8 C 83 % 1033,5 hPa 0,0 l/m 28,6 km/h (5 Bft) NW 305 0 min 0 W/m 2,2 C -6,3 C 28,6 km/h (5 Bft)
17.02.2008 16:35 4,8 C 83 % 1033,5 hPa 0,0 l/m 31,3 km/h (5 Bft) NW 305 0 min 0 W/m 2,2 C -7,0 C 31,3 km/h (5 Bft)
17.02.2008 16:38 4,8 C 83 % 1033,5 hPa 0,0 l/m 23,5 km/h (4 Bft) NW 310 0 min 0 W/m 2,2 C -4,7 C 23,5 km/h (4 Bft)
17.02.2008 16:42 4,8 C 83 % 1033,5 hPa 0,0 l/m 25,5 km/h (4 Bft) NW 305 0 min 0 W/m 2,2 C -5,4 C 25,5 km/h (4 Bft)
17.02.2008 16:45 4,8 C 82 % 1033,5 hPa 0,0 l/m 24,7 km/h (4 Bft) NW 310 0 min 0 W/m 2,0 C -5,1 C 24,7 km/h (4 Bft)
17.02.2008 16:48 4,8 C 82 % 1033,5 hPa 0,0 l/m 25,8 km/h (4 Bft) NW 305 0 min 0 W/m 2,0 C -5,5 C 25,8 km/h (4 Bft)
17.02.2008 16:51 4,7 C 82 % 1033,5 hPa 0,0 l/m 24,5 km/h (4 Bft) W-NW 300 0 min 0 W/m 1,9 C -5,2 C 24,5 km/h (4 Bft)
17.02.2008 16:54 4,7 C 82 % 1033,5 hPa 0,0 l/m 24,5 km/h (4 Bft) W-NW 300 0 min 0 W/m 1,9 C -5,2 C 24,5 km/h (4 Bft)
17.02.2008 16:56 4,7 C 82 % 1033,5 hPa 0,0 l/m 25,5 km/h (4 Bft) NW 315 0 min 0 W/m 1,9 C -5,5 C 25,5 km/h (4 Bft)
17.02.2008 16:59 4,8 C 82 % 1033,5 hPa 0,0 l/m 25,5 km/h (4 Bft) NW 315 0 min 0 W/m 2,0 C -5,4 C 25,5 km/h (4 Bft)
17.02.2008 17:03 4,7 C 81 % 1033,5 hPa 0,0 l/m 24,1 km/h (4 Bft) W-NW 295 0 min 0 W/m 1,7 C -5,1 C 24,1 km/h (4 Bft)
17.02.2008 17:06 4,7 C 81 % 1033,5 hPa 0,0 l/m 22,1 km/h (4 Bft) NW 315 0 min 0 W/m 1,7 C -4,4 C 22,1 km/h (4 Bft)
17.02.2008 17:09 4,7 C 81 % 1033,5 hPa 0,0 l/m 28,1 km/h (5 Bft) NW 305 0 min 0 W/m 1,7 C -6,3 C 28,1 km/h (5 Bft)
17.02.2008 17:11 4,6 C 80 % 1033,5 hPa 0,0 l/m 24,8 km/h (4 Bft) NW 305 0 min 0 W/m 1,5 C -5,4 C 24,8 km/h (4 Bft)
17.02.2008 17:14 4,7 C 81 % 1033,5 hPa 0,0 l/m 23,4 km/h (4 Bft) NW 310 0 min 0 W/m 1,7 C -4,8 C 23,4 km/h (4 Bft)
17.02.2008 17:17 4,7 C 82 % 1033,5 hPa 0,0 l/m 28,1 km/h (5 Bft) NW 310 0 min 0 W/m 1,9 C -6,3 C 28,1 km/h (5 Bft)
17.02.2008 17:20 4,7 C 82 % 1033,5 hPa 0,0 l/m 28,1 km/h (5 Bft) NW 310 0 min 0 W/m 1,9 C -6,3 C 28,1 km/h (5 Bft)
17.02.2008 17:23 4,7 C 82 % 1033,5 hPa 0,0 l/m 27,1 km/h (5 Bft) NW 315 0 min 0 W/m 1,9 C -6,0 C 27,1 km/h (5 Bft)
17.02.2008 17:27 4,6 C 82 % 1033,5 hPa 0,0 l/m 24,1 km/h (4 Bft) NW 320 0 min 0 W/m 1,8 C -5,2 C 24,1 km/h (4 Bft)
17.02.2008 17:30 4,6 C 82 % 1033,5 hPa 0,0 l/m 21,5 km/h (4 Bft) NW 305 0 min 0 W/m 1,8 C -4,3 C 21,5 km/h (4 Bft)
17.02.2008 17:33 4,6 C 82 % 1033,5 hPa 0,0 l/m 26,1 km/h (4 Bft) NW 315 0 min 0 W/m 1,8 C -5,8 C 26,1 km/h (4 Bft)
17.02.2008 17:36 4,5 C 82 % 1033,5 hPa 0,0 l/m 24,1 km/h (4 Bft) NW 305 0 min 0 W/m 1,7 C -5,3 C 24,1 km/h (4 Bft)
17.02.2008 17:39 4,5 C 82 % 1033,5 hPa 0,0 l/m 21,3 km/h (4 Bft) W-NW 300 0 min 0 W/m 1,7 C -4,3 C 21,3 km/h (4 Bft)
17.02.2008 17:41 4,5 C 82 % 1033,5 hPa 0,0 l/m 20,5 km/h (4 Bft) NW 305 0 min 0 W/m 1,7 C -4,0 C 20,5 km/h (4 Bft)
17.02.2008 17:44 4,4 C 83 % 1033,5 hPa 0,0 l/m 18,6 km/h (3 Bft) W-NW 295 0 min 0 W/m 1,8 C -3,4 C 18,6 km/h (3 Bft)
17.02.2008 17:47 4,4 C 83 % 1033,5 hPa 0,0 l/m 23,6 km/h (4 Bft) NW 305 0 min 0 W/m 1,8 C -5,3 C 23,6 km/h (4 Bft)
17.02.2008 17:50 4,4 C 83 % 1033,5 hPa 0,0 l/m 22,4 km/h (4 Bft) NW 305 0 min 0 W/m 1,8 C -4,9 C 22,4 km/h (4 Bft)
17.02.2008 17:54 4,4 C 83 % 1033,5 hPa 0,0 l/m 24,5 km/h (4 Bft) NW 305 0 min 0 W/m 1,8 C -5,6 C 24,5 km/h (4 Bft)
17.02.2008 17:57 4,4 C 83 % 1033,5 hPa 0,0 l/m 23,9 km/h (4 Bft) NW 310 0 min 0 W/m 1,8 C -5,4 C 23,9 km/h (4 Bft)
17.02.2008 18:00 4,3 C 83 % 1033,5 hPa 0,0 l/m 24,3 km/h (4 Bft) NW 310 0 min 0 W/m 1,7 C -5,7 C 24,3 km/h (4 Bft)
17.02.2008 18:02 4,3 C 82 % 1033,5 hPa 0,0 l/m 28,5 km/h (5 Bft) NW 310 0 min 0 W/m 1,5 C -6,9 C 28,5 km/h (5 Bft)
17.02.2008 18:05 4,3 C 81 % 1033,5 hPa 0,0 l/m 28,5 km/h (5 Bft) NW 310 0 min 0 W/m 1,3 C -6,9 C 28,5 km/h (5 Bft)
17.02.2008 18:09 4,4 C 81 % 1033,5 hPa 0,0 l/m 25,2 km/h (4 Bft) NW 310 0 min 0 W/m 1,4 C -5,8 C 25,2 km/h (4 Bft)
17.02.2008 18:12 4,4 C 81 % 1033,5 hPa 0,0 l/m 24,5 km/h (4 Bft) NW 315 0 min 0 W/m 1,4 C -5,6 C 24,5 km/h (4 Bft)
17.02.2008 18:15 4,4 C 81 % 1033,5 hPa 0,0 l/m 22,2 km/h (4 Bft) W-NW 300 0 min 0 W/m 1,4 C -4,8 C 22,2 km/h (4 Bft)
17.02.2008 18:18 4,4 C 81 % 1033,5 hPa 0,0 l/m 29,0 km/h (5 Bft) NW 315 0 min 0 W/m 1,4 C -6,9 C 29,0 km/h (5 Bft)
17.02.2008 18:21 4,4 C 82 % 1033,5 hPa 0,0 l/m 19,1 km/h (3 Bft) NW 310 0 min 0 W/m 1,6 C -3,6 C 19,1 km/h (3 Bft)
17.02.2008 18:23 4,4 C 82 % 1033,5 hPa 0,0 l/m 20,3 km/h (4 Bft) NW 310 0 min 0 W/m 1,6 C -4,1 C 20,3 km/h (4 Bft)
17.02.2008 18:26 4,4 C 83 % 1033,5 hPa 0,0 l/m 24,3 km/h (4 Bft) W-NW 295 0 min 0 W/m 1,8 C -5,5 C 24,3 km/h (4 Bft)
17.02.2008 18:29 4,4 C 83 % 1033,5 hPa 0,0 l/m 22,0 km/h (4 Bft) NW 315 0 min 0 W/m 1,8 C -4,7 C 22,0 km/h (4 Bft)
17.02.2008 18:32 4,3 C 83 % 1033,5 hPa 0,0 l/m 24,0 km/h (4 Bft) W-NW 300 0 min 0 W/m 1,7 C -5,6 C 24,0 km/h (4 Bft)
17.02.2008 18:36 4,3 C 83 % 1033,5 hPa 0,0 l/m 23,3 km/h (4 Bft) NW 310 0 min 0 W/m 1,7 C -5,3 C 23,3 km/h (4 Bft)
17.02.2008 18:39 4,3 C 82 % 1033,5 hPa 0,0 l/m 20,0 km/h (4 Bft) NW 305 0 min 0 W/m 1,5 C -4,1 C 20,0 km/h (4 Bft)
17.02.2008 18:42 4,3 C 82 % 1033,5 hPa 0,0 l/m 24,0 km/h (4 Bft) NW 315 0 min 0 W/m 1,5 C -5,6 C 24,0 km/h (4 Bft)
17.02.2008 18:45 4,3 C 82 % 1033,5 hPa 0,0 l/m 20,1 km/h (4 Bft) NW 310 0 min 0 W/m 1,5 C -4,1 C 20,1 km/h (4 Bft)
17.02.2008 18:48 4,4 C 82 % 1033,5 hPa 0,0 l/m 21,9 km/h (4 Bft) NW 315 0 min 0 W/m 1,6 C -4,7 C 21,9 km/h (4 Bft)
17.02.2008 18:50 4,3 C 83 % 1033,5 hPa 0,0 l/m 15,8 km/h (3 Bft) NW 320 0 min 0 W/m 1,7 C -2,2 C 15,8 km/h (3 Bft)
17.02.2008 18:53 4,3 C 83 % 1033,5 hPa 0,0 l/m 20,2 km/h (4 Bft) NW 320 0 min 0 W/m 1,7 C -4,2 C 20,2 km/h (4 Bft)
17.02.2008 18:56 4,3 C 84 % 1033,5 hPa 0,0 l/m 20,6 km/h (4 Bft) NW 310 0 min 0 W/m 1,8 C -4,3 C 20,6 km/h (4 Bft)
17.02.2008 18:59 4,3 C 83 % 1033,5 hPa 0,0 l/m 26,6 km/h (4 Bft) NW 315 0 min 0 W/m 1,7 C -6,4 C 26,6 km/h (4 Bft)
17.02.2008 19:03 4,3 C 83 % 1033,5 hPa 0,0 l/m 29,0 km/h (5 Bft) NW 320 0 min 0 W/m 1,7 C -7,1 C 29,0 km/h (5 Bft)
17.02.2008 19:05 4,3 C 83 % 1033,5 hPa 0,0 l/m 25,1 km/h (4 Bft) NW 310 0 min 0 W/m 1,7 C -5,9 C 25,1 km/h (4 Bft)
17.02.2008 19:08 4,3 C 83 % 1033,5 hPa 0,0 l/m 17,7 km/h (3 Bft) NW 325 0 min 0 W/m 1,7 C -3,1 C 17,7 km/h (3 Bft)
17.02.2008 19:11 4,3 C 83 % 1033,5 hPa 0,0 l/m 25,1 km/h (4 Bft) NW 320 0 min 0 W/m 1,7 C -5,9 C 25,1 km/h (4 Bft)
17.02.2008 19:14 4,3 C 82 % 1033,5 hPa 0,0 l/m 26,0 km/h (4 Bft) NW 320 0 min 0 W/m 1,5 C -6,2 C 26,0 km/h (4 Bft)
17.02.2008 19:18 4,3 C 81 % 1033,5 hPa 0,0 l/m 23,5 km/h (4 Bft) NW 315 0 min 0 W/m 1,3 C -5,4 C 23,5 km/h (4 Bft)
17.02.2008 19:21 4,3 C 81 % 1033,5 hPa 0,0 l/m 22,1 km/h (4 Bft) NW 310 0 min 0 W/m 1,3 C -4,9 C 22,1 km/h (4 Bft)
17.02.2008 19:24 4,3 C 81 % 1033,5 hPa 0,0 l/m 26,6 km/h (4 Bft) NW 315 0 min 0 W/m 1,3 C -6,4 C 26,6 km/h (4 Bft)
17.02.2008 19:27 4,4 C 82 % 1033,5 hPa 0,0 l/m 23,0 km/h (4 Bft) NW 315 0 min 0 W/m 1,6 C -5,1 C 23,0 km/h (4 Bft)
17.02.2008 19:30 4,4 C 82 % 1033,5 hPa 0,0 l/m 24,0 km/h (4 Bft) NW 315 0 min 0 W/m 1,6 C -5,4 C 24,0 km/h (4 Bft)
17.02.2008 19:32 4,3 C 83 % 1033,5 hPa 0,0 l/m 18,1 km/h (3 Bft) W-NW 300 0 min 0 W/m 1,7 C -3,3 C 18,1 km/h (3 Bft)
17.02.2008 19:35 4,3 C 83 % 1033,5 hPa 0,0 l/m 23,5 km/h (4 Bft) NW 310 0 min 0 W/m 1,7 C -5,4 C 23,5 km/h (4 Bft)
17.02.2008 19:38 4,3 C 83 % 1033,5 hPa 0,0 l/m 21,6 km/h (4 Bft) NW 310 0 min 0 W/m 1,7 C -4,7 C 21,6 km/h (4 Bft)
17.02.2008 19:41 4,3 C 83 % 1033,5 hPa 0,0 l/m 20,0 km/h (4 Bft) NW 305 0 min 0 W/m 1,7 C -4,1 C 20,0 km/h (4 Bft)
17.02.2008 19:45 4,3 C 83 % 1033,5 hPa 0,0 l/m 21,0 km/h (4 Bft) NW 315 0 min 0 W/m 1,7 C -4,5 C 21,0 km/h (4 Bft)
17.02.2008 19:48 4,4 C 83 % 1033,5 hPa 0,0 l/m 21,6 km/h (4 Bft) W-NW 300 0 min 0 W/m 1,8 C -4,6 C 21,6 km/h (4 Bft)
17.02.2008 19:51 4,4 C 83 % 1033,5 hPa 0,0 l/m 19,0 km/h (3 Bft) NW 315 0 min 0 W/m 1,8 C -3,5 C 19,0 km/h (3 Bft)
17.02.2008 19:54 4,3 C 83 % 1033,5 hPa 0,0 l/m 25,4 km/h (4 Bft) NW 315 0 min 0 W/m 1,7 C -6,0 C 25,4 km/h (4 Bft)
17.02.2008 19:56 4,3 C 83 % 1033,5 hPa 0,0 l/m 21,4 km/h (4 Bft) NW 305 0 min 0 W/m 1,7 C -4,6 C 21,4 km/h (4 Bft)
17.02.2008 19:59 4,3 C 83 % 1033,5 hPa 0,0 l/m 24,6 km/h (4 Bft) NW 305 0 min 0 W/m 1,7 C -5,8 C 24,6 km/h (4 Bft)
17.02.2008 20:03 4,4 C 82 % 1033,5 hPa 0,0 l/m 24,6 km/h (4 Bft) NW 305 0 min 0 W/m 1,6 C -5,6 C 24,6 km/h (4 Bft)
17.02.2008 20:06 4,4 C 82 % 1033,5 hPa 0,0 l/m 24,6 km/h (4 Bft) NW 305 0 min 0 W/m 1,6 C -5,6 C 24,6 km/h (4 Bft)
17.02.2008 20:09 4,4 C 83 % 1032,5 hPa 0,0 l/m 22,1 km/h (4 Bft) NW 310 0 min 0 W/m 1,8 C -4,8 C 22,1 km/h (4 Bft)
17.02.2008 20:11 4,4 C 83 % 1032,5 hPa 0,0 l/m 21,3 km/h (4 Bft) NW 305 0 min 0 W/m 1,8 C -4,5 C 21,3 km/h (4 Bft)
17.02.2008 20:14 4,4 C 83 % 1032,5 hPa 0,0 l/m 27,9 km/h (5 Bft) NW 305 0 min 0 W/m 1,8 C -6,6 C 27,9 km/h (5 Bft)
17.02.2008 20:17 4,4 C 84 % 1032,5 hPa 0,0 l/m 24,0 km/h (4 Bft) NW 305 0 min 0 W/m 1,9 C -5,4 C 24,0 km/h (4 Bft)
17.02.2008 20:20 4,4 C 84 % 1032,5 hPa 0,0 l/m 20,7 km/h (4 Bft) NW 315 0 min 0 W/m 1,9 C -4,2 C 20,7 km/h (4 Bft)
17.02.2008 20:24 4,4 C 84 % 1032,5 hPa 0,0 l/m 23,3 km/h (4 Bft) NW 315 0 min 0 W/m 1,9 C -5,2 C 23,3 km/h (4 Bft)
17.02.2008 20:27 4,4 C 84 % 1032,5 hPa 0,0 l/m 22,8 km/h (4 Bft) W-NW 300 0 min 0 W/m 1,9 C -5,0 C 22,8 km/h (4 Bft)
17.02.2008 20:30 4,4 C 84 % 1032,5 hPa 0,0 l/m 23,8 km/h (4 Bft) W-NW 295 0 min 0 W/m 1,9 C -5,4 C 23,8 km/h (4 Bft)
17.02.2008 20:33 4,4 C 84 % 1032,5 hPa 0,0 l/m 23,0 km/h (4 Bft) NW 305 0 min 0 W/m 1,9 C -5,1 C 23,0 km/h (4 Bft)
17.02.2008 20:35 4,4 C 84 % 1032,5 hPa 0,0 l/m 23,2 km/h (4 Bft) W-NW 300 0 min 0 W/m 1,9 C -5,2 C 23,2 km/h (4 Bft)
17.02.2008 20:38 4,4 C 84 % 1032,5 hPa 0,0 l/m 24,1 km/h (4 Bft) W-NW 300 0 min 0 W/m 1,9 C -5,5 C 24,1 km/h (4 Bft)
17.02.2008 20:41 4,4 C 84 % 1032,5 hPa 0,0 l/m 23,6 km/h (4 Bft) NW 310 0 min 0 W/m 1,9 C -5,3 C 23,6 km/h (4 Bft)
17.02.2008 20:44 4,4 C 84 % 1032,5 hPa 0,0 l/m 25,0 km/h (4 Bft) W-NW 300 0 min 0 W/m 1,9 C -5,8 C 25,0 km/h (4 Bft)
17.02.2008 20:48 4,4 C 84 % 1032,5 hPa 0,0 l/m 23,1 km/h (4 Bft) W-NW 295 0 min 0 W/m 1,9 C -5,1 C 23,1 km/h (4 Bft)
17.02.2008 20:51 4,3 C 84 % 1032,5 hPa 0,0 l/m 22,5 km/h (4 Bft) NW 310 0 min 0 W/m 1,8 C -5,0 C 22,5 km/h (4 Bft)
17.02.2008 20:54 4,3 C 84 % 1032,5 hPa 0,0 l/m 21,3 km/h (4 Bft) NW 305 0 min 0 W/m 1,8 C -4,6 C 21,3 km/h (4 Bft)
17.02.2008 20:57 4,3 C 84 % 1032,5 hPa 0,0 l/m 20,5 km/h (4 Bft) NW 315 0 min 0 W/m 1,8 C -4,3 C 20,5 km/h (4 Bft)
17.02.2008 21:00 4,3 C 84 % 1032,5 hPa 0,0 l/m 22,3 km/h (4 Bft) NW 315 0 min 0 W/m 1,8 C -5,0 C 22,3 km/h (4 Bft)
17.02.2008 21:03 4,4 C 84 % 1032,5 hPa 0,0 l/m 19,8 km/h (3 Bft) NW 305 0 min 0 W/m 1,9 C -3,9 C 19,8 km/h (3 Bft)
17.02.2008 21:06 4,4 C 84 % 1032,5 hPa 0,0 l/m 23,1 km/h (4 Bft) NW 310 0 min 0 W/m 1,9 C -5,1 C 23,1 km/h (4 Bft)
17.02.2008 21:09 4,4 C 85 % 1032,5 hPa 0,0 l/m 23,8 km/h (4 Bft) NW 310 0 min 0 W/m 2,1 C -5,4 C 23,8 km/h (4 Bft)
17.02.2008 21:12 4,4 C 85 % 1032,5 hPa 0,0 l/m 20,3 km/h (4 Bft) W-NW 295 0 min 0 W/m 2,1 C -4,1 C 20,3 km/h (4 Bft)
17.02.2008 21:14 4,4 C 85 % 1032,5 hPa 0,0 l/m 20,3 km/h (4 Bft) W-NW 295 0 min 0 W/m 2,1 C -4,1 C 20,3 km/h (4 Bft)
17.02.2008 21:17 4,4 C 85 % 1032,5 hPa 0,0 l/m 25,8 km/h (4 Bft) W-NW 295 0 min 0 W/m 2,1 C -6,0 C 25,8 km/h (4 Bft)
17.02.2008 21:20 4,4 C 85 % 1032,5 hPa 0,0 l/m 24,6 km/h (4 Bft) W-NW 300 0 min 0 W/m 2,1 C -5,6 C 24,6 km/h (4 Bft)
17.02.2008 21:24 4,4 C 86 % 1032,5 hPa 0,0 l/m 23,1 km/h (4 Bft) NW 305 0 min 0 W/m 2,3 C -5,1 C 23,1 km/h (4 Bft)
17.02.2008 21:27 4,4 C 86 % 1032,5 hPa 0,0 l/m 26,5 km/h (4 Bft) NW 315 0 min 0 W/m 2,3 C -6,2 C 26,5 km/h (4 Bft)
17.02.2008 21:30 4,4 C 86 % 1032,5 hPa 0,0 l/m 18,9 km/h (3 Bft) NW 315 0 min 0 W/m 2,3 C -3,5 C 18,9 km/h (3 Bft)
17.02.2008 21:33 4,4 C 86 % 1032,5 hPa 0,0 l/m 16,1 km/h (3 Bft) W-NW 285 0 min 0 W/m 2,3 C -2,2 C 16,1 km/h (3 Bft)
17.02.2008 21:36 4,4 C 86 % 1032,5 hPa 0,0 l/m 19,7 km/h (3 Bft) W-NW 300 0 min 0 W/m 2,3 C -3,8 C 19,7 km/h (3 Bft)
17.02.2008 21:38 4,4 C 86 % 1032,5 hPa 0,0 l/m 20,8 km/h (4 Bft) NW 305 0 min 0 W/m 2,3 C -4,3 C 20,8 km/h (4 Bft)
17.02.2008 21:41 4,4 C 86 % 1032,5 hPa 0,0 l/m 17,5 km/h (3 Bft) NW 310 0 min 0 W/m 2,3 C -2,9 C 17,5 km/h (3 Bft)
17.02.2008 21:44 4,4 C 86 % 1032,5 hPa 0,0 l/m 23,1 km/h (4 Bft) W-NW 295 0 min 0 W/m 2,3 C -5,1 C 23,1 km/h (4 Bft)
17.02.2008 21:48 4,5 C 86 % 1032,5 hPa 0,0 l/m 21,7 km/h (4 Bft) W-NW 300 0 min 0 W/m 2,4 C -4,5 C 21,7 km/h (4 Bft)
17.02.2008 21:51 4,5 C 86 % 1032,5 hPa 0,0 l/m 16,8 km/h (3 Bft) W-NW 295 0 min 0 W/m 2,4 C -2,4 C 16,8 km/h (3 Bft)
17.02.2008 21:54 4,5 C 86 % 1032,5 hPa 0,0 l/m 25,1 km/h (4 Bft) W-NW 285 0 min 0 W/m 2,4 C -5,7 C 25,1 km/h (4 Bft)
17.02.2008 21:57 4,4 C 87 % 1032,5 hPa 0,0 l/m 24,4 km/h (4 Bft) W 280 0 min 0 W/m 2,4 C -5,6 C 24,4 km/h (4 Bft)
17.02.2008 21:59 4,4 C 87 % 1032,5 hPa 0,0 l/m 17,5 km/h (3 Bft) W-NW 285 0 min 0 W/m 2,4 C -2,9 C 17,5 km/h (3 Bft)
17.02.2008 22:03 4,3 C 87 % 1032,5 hPa 0,0 l/m 17,9 km/h (3 Bft) W-NW 295 0 min 0 W/m 2,3 C -3,2 C 17,9 km/h (3 Bft)
17.02.2008 22:06 4,3 C 87 % 1032,5 hPa 0,0 l/m 20,1 km/h (4 Bft) W-NW 295 0 min 0 W/m 2,3 C -4,1 C 20,1 km/h (4 Bft)
17.02.2008 22:09 4,3 C 88 % 1032,5 hPa 0,0 l/m 18,6 km/h (3 Bft) NW 305 0 min 0 W/m 2,5 C -3,5 C 18,6 km/h (3 Bft)
17.02.2008 22:11 4,3 C 88 % 1032,5 hPa 0,0 l/m 24,3 km/h (4 Bft) W-NW 295 0 min 0 W/m 2,5 C -5,7 C 24,3 km/h (4 Bft)
17.02.2008 22:14 4,3 C 88 % 1032,5 hPa 0,0 l/m 24,1 km/h (4 Bft) W-NW 295 0 min 0 W/m 2,5 C -5,6 C 24,1 km/h (4 Bft)
17.02.2008 22:17 4,3 C 88 % 1032,5 hPa 0,0 l/m 24,5 km/h (4 Bft) W-NW 295 0 min 0 W/m 2,5 C -5,7 C 24,5 km/h (4 Bft)
17.02.2008 22:20 4,3 C 88 % 1032,5 hPa 0,0 l/m 19,0 km/h (3 Bft) W-NW 290 0 min 0 W/m 2,5 C -3,7 C 19,0 km/h (3 Bft)
17.02.2008 22:24 4,4 C 88 % 1032,5 hPa 0,0 l/m 19,0 km/h (3 Bft) W-NW 290 0 min 0 W/m 2,6 C -3,5 C 19,0 km/h (3 Bft)
17.02.2008 22:27 4,3 C 88 % 1032,5 hPa 0,0 l/m 17,6 km/h (3 Bft) W-NW 290 0 min 0 W/m 2,5 C -3,0 C 17,6 km/h (3 Bft)
17.02.2008 22:30 4,4 C 88 % 1032,5 hPa 0,0 l/m 17,8 km/h (3 Bft) W-NW 295 0 min 0 W/m 2,6 C -3,0 C 17,8 km/h (3 Bft)
17.02.2008 22:33 4,4 C 88 % 1032,5 hPa 0,0 l/m 17,1 km/h (3 Bft) NW 305 0 min 0 W/m 2,6 C -2,7 C 17,1 km/h (3 Bft)
17.02.2008 22:35 4,4 C 88 % 1032,5 hPa 0,0 l/m 19,7 km/h (3 Bft) NW 305 0 min 0 W/m 2,6 C -3,8 C 19,7 km/h (3 Bft)
17.02.2008 22:38 4,4 C 88 % 1032,5 hPa 0,0 l/m 19,7 km/h (3 Bft) NW 305 0 min 0 W/m 2,6 C -3,8 C 19,7 km/h (3 Bft)
17.02.2008 22:41 4,4 C 88 % 1032,5 hPa 0,0 l/m 18,6 km/h (3 Bft) W-NW 300 0 min 0 W/m 2,6 C -3,4 C 18,6 km/h (3 Bft)
17.02.2008 22:44 4,5 C 88 % 1032,5 hPa 0,0 l/m 19,8 km/h (3 Bft) NW 305 0 min 0 W/m 2,7 C -3,7 C 19,8 km/h (3 Bft)
17.02.2008 22:48 4,5 C 88 % 1032,5 hPa 0,0 l/m 20,4 km/h (4 Bft) NW 305 0 min 0 W/m 2,7 C -4,0 C 20,4 km/h (4 Bft)
17.02.2008 22:51 4,5 C 88 % 1032,5 hPa 0,0 l/m 20,4 km/h (4 Bft) NW 305 0 min 0 W/m 2,7 C -4,0 C 20,4 km/h (4 Bft)
17.02.2008 22:54 4,5 C 88 % 1032,5 hPa 0,0 l/m 15,1 km/h (3 Bft) W-NW 295 0 min 0 W/m 2,7 C -1,6 C 15,1 km/h (3 Bft)
17.02.2008 22:57 4,5 C 88 % 1032,5 hPa 0,0 l/m 13,5 km/h (3 Bft) W-NW 290 0 min 0 W/m 2,7 C -0,7 C 13,5 km/h (3 Bft)
17.02.2008 22:59 4,5 C 88 % 1031,5 hPa 0,0 l/m 16,8 km/h (3 Bft) W-NW 300 0 min 0 W/m 2,7 C -2,4 C 16,8 km/h (3 Bft)
17.02.2008 23:03 4,5 C 88 % 1031,5 hPa 0,0 l/m 24,1 km/h (4 Bft) NW 305 0 min 0 W/m 2,7 C -5,3 C 24,1 km/h (4 Bft)
17.02.2008 23:06 4,5 C 88 % 1031,5 hPa 0,0 l/m 21,3 km/h (4 Bft) W-NW 300 0 min 0 W/m 2,7 C -4,3 C 21,3 km/h (4 Bft)
17.02.2008 23:09 4,5 C 88 % 1031,5 hPa 0,0 l/m 14,0 km/h (3 Bft) W-NW 300 0 min 0 W/m 2,7 C -1,0 C 14,0 km/h (3 Bft)
17.02.2008 23:11 4,5 C 88 % 1031,5 hPa 0,0 l/m 18,3 km/h (3 Bft) W-NW 295 0 min 0 W/m 2,7 C -3,1 C 18,3 km/h (3 Bft)
17.02.2008 23:14 4,5 C 88 % 1031,5 hPa 0,0 l/m 17,5 km/h (3 Bft) NW 310 0 min 0 W/m 2,7 C -2,7 C 17,5 km/h (3 Bft)
17.02.2008 23:17 4,5 C 88 % 1032,5 hPa 0,0 l/m 22,3 km/h (4 Bft) W-NW 300 0 min 0 W/m 2,7 C -4,7 C 22,3 km/h (4 Bft)
17.02.2008 23:21 4,5 C 88 % 1032,5 hPa 0,0 l/m 16,1 km/h (3 Bft) NW 305 0 min 0 W/m 2,7 C -2,1 C 16,1 km/h (3 Bft)
17.02.2008 23:24 4,5 C 88 % 1032,5 hPa 0,0 l/m 19,4 km/h (3 Bft) NW 305 0 min 0 W/m 2,7 C -3,6 C 19,4 km/h (3 Bft)
17.02.2008 23:27 4,5 C 88 % 1032,5 hPa 0,0 l/m 20,0 km/h (4 Bft) W-NW 300 0 min 0 W/m 2,7 C -3,8 C 20,0 km/h (4 Bft)
17.02.2008 23:30 4,5 C 88 % 1032,5 hPa 0,0 l/m 13,6 km/h (3 Bft) W-NW 300 0 min 0 W/m 2,7 C -0,8 C 13,6 km/h (3 Bft)
17.02.2008 23:33 4,6 C 89 % 1032,5 hPa 0,0 l/m 19,1 km/h (3 Bft) W-NW 295 0 min 0 W/m 2,9 C -3,3 C 19,1 km/h (3 Bft)
17.02.2008 23:35 4,6 C 89 % 1032,5 hPa 0,0 l/m 15,3 km/h (3 Bft) W-NW 285 0 min 0 W/m 2,9 C -1,6 C 15,3 km/h (3 Bft)
17.02.2008 23:38 4,6 C 89 % 1032,5 hPa 0,0 l/m 20,3 km/h (4 Bft) W-NW 300 0 min 0 W/m 2,9 C -3,8 C 20,3 km/h (4 Bft)
17.02.2008 23:41 4,6 C 89 % 1032,5 hPa 0,0 l/m 15,9 km/h (3 Bft) W-NW 295 0 min 0 W/m 2,9 C -1,9 C 15,9 km/h (3 Bft)
17.02.2008 23:45 4,6 C 89 % 1031,5 hPa 0,0 l/m 16,8 km/h (3 Bft) NW 315 0 min 0 W/m 2,9 C -2,3 C 16,8 km/h (3 Bft)
17.02.2008 23:48 4,6 C 89 % 1031,5 hPa 0,0 l/m 16,8 km/h (3 Bft) NW 315 0 min 0 W/m 2,9 C -2,3 C 16,8 km/h (3 Bft)
17.02.2008 23:51 4,5 C 88 % 1031,5 hPa 0,0 l/m 19,0 km/h (3 Bft) W-NW 300 0 min 0 W/m 2,7 C -3,4 C 19,0 km/h (3 Bft)
17.02.2008 23:54 4,5 C 88 % 1031,5 hPa 0,0 l/m 14,5 km/h (3 Bft) W-NW 290 0 min 0 W/m 2,7 C -1,3 C 14,5 km/h (3 Bft)
17.02.2008 23:56 4,4 C 88 % 1031,5 hPa 0,0 l/m 17,8 km/h (3 Bft) W-NW 290 0 min 0 W/m 2,6 C -3,0 C 17,8 km/h (3 Bft)
17.02.2008 23:59 4,4 C 89 % 1031,5 hPa 0,0 l/m 21,7 km/h (4 Bft) W-NW 290 0 min 0 W/m 2,7 C -4,6 C 21,7 km/h (4 Bft)
_ Min-Zeit 00:02 09:17 22:59 - 00:45 - - - - 00:02 08:14 00:45
Minimum _ -2,6 C 66 % 1031,5 hPa - 1,7 km/h (1 Bft) - - - - -6,1 C -11,6 C 1,7 km/h (1 Bft)
_ Max-Zeit 09:14 23:33 00:02 00:02 14:29 - - 00:02 00:02 23:33 22:57 14:29
Maximum _ 5,1 C 89 % 1042,5 hPa 0,0 l/m 33,1 km/h
W-NW (5 Bft)
- - 0 min 0 W/m 2,9 C -0,7 C 33,1 km/h
W-NW (5 Bft)
Durchschnitt _ 1,9 C 83 % 1036,3 hPa #0,0 l/m 18,4 km/h (3 Bft) W - #0 min. 0 W/m -0,7 C -5,6 C 18,4 km/h (3 Bft)
copyright by Holger Just